<?xml version='1.0' encoding='UTF-8'?><gpx version="1.1" creator="JPX - https://github.com/jenetics/jpx" xmlns="http://www.topografix.com/GPX/1/1"><trk><trkseg><trkpt lat="46.418280566921915" lon="12.246868892674547"><ele>878.0</ele><time>2026-04-30T15:58:14.998Z</time></trkpt><trkpt lat="46.41822512953666" lon="12.246814246122774"><ele>878.0</ele><time>2026-04-30T15:58:15.998Z</time></trkpt><trkpt lat="46.41813955332368" lon="12.246747247839053"><ele>878.0</ele><time>2026-04-30T15:58:18Z</time></trkpt><trkpt lat="46.418066564797904" lon="12.24668862255399"><ele>878.0</ele><time>2026-04-30T15:58:20Z</time></trkpt><trkpt lat="46.41798090060132" lon="12.246646163866172"><ele>878.0</ele><time>2026-04-30T15:58:22Z</time></trkpt><trkpt lat="46.41786916517266" lon="12.246767627551815"><ele>877.0</ele><time>2026-04-30T15:58:24Z</time></trkpt><trkpt lat="46.41782397027511" lon="12.246920303931525"><ele>876.0</ele><time>2026-04-30T15:58:25Z</time></trkpt><trkpt lat="46.41777190890981" lon="12.247052007049437"><ele>875.0</ele><time>2026-04-30T15:58:26Z</time></trkpt><trkpt lat="46.41774119454217" lon="12.247173773309509"><ele>874.0</ele><time>2026-04-30T15:58:27Z</time></trkpt><trkpt lat="46.4177022529577" lon="12.247290093073309"><ele>873.0</ele><time>2026-04-30T15:58:28Z</time></trkpt><trkpt lat="46.417638621835096" lon="12.247391893664242"><ele>872.0</ele><time>2026-04-30T15:58:29Z</time></trkpt><trkpt lat="46.41753942116957" lon="12.247428850181242"><ele>871.0</ele><time>2026-04-30T15:58:30Z</time></trkpt><trkpt lat="46.41746239523342" lon="12.247479526517965"><ele>870.0</ele><time>2026-04-30T15:58:31Z</time></trkpt><trkpt lat="46.417377290480665" lon="12.247533363641383"><ele>869.0</ele><time>2026-04-30T15:58:32Z</time></trkpt><trkpt lat="46.41728744291894" lon="12.247585892278744"><ele>868.0</ele><time>2026-04-30T15:58:33Z</time></trkpt><trkpt lat="46.417172222751404" lon="12.24765170402093"><ele>867.25</ele><time>2026-04-30T15:58:34Z</time></trkpt><trkpt lat="46.41704599739863" lon="12.24766098719455"><ele>866.5</ele><time>2026-04-30T15:58:35Z</time></trkpt><trkpt lat="46.416922883196044" lon="12.247711560258738"><ele>865.75</ele><time>2026-04-30T15:58:36Z</time></trkpt><trkpt lat="46.4168070699784" lon="12.247736595266538"><ele>865.0</ele><time>2026-04-30T15:58:37Z</time></trkpt><trkpt lat="46.41670197532696" lon="12.247758718783519"><ele>865.0</ele><time>2026-04-30T15:58:38Z</time></trkpt><trkpt lat="46.41660117408035" lon="12.247781121608783"><ele>865.0</ele><time>2026-04-30T15:58:39Z</time></trkpt><trkpt lat="46.4165053237268" lon="12.247809562318555"><ele>865.0</ele><time>2026-04-30T15:58:40Z</time></trkpt><trkpt lat="46.41641387284591" lon="12.247831939900022"><ele>865.0</ele><time>2026-04-30T15:58:41Z</time></trkpt><trkpt lat="46.41632360322951" lon="12.247845186355445"><ele>865.0</ele><time>2026-04-30T15:58:42Z</time></trkpt><trkpt lat="46.416225594375305" lon="12.247838199559427"><ele>863.8</ele><time>2026-04-30T15:58:43Z</time></trkpt><trkpt lat="46.41611664394943" lon="12.247864657228105"><ele>862.6</ele><time>2026-04-30T15:58:44Z</time></trkpt><trkpt lat="46.416013984029604" lon="12.247854031861822"><ele>861.4000000000001</ele><time>2026-04-30T15:58:45Z</time></trkpt><trkpt lat="46.41592393616821" lon="12.247840384625233"><ele>860.2</ele><time>2026-04-30T15:58:46Z</time></trkpt><trkpt lat="46.415836588864636" lon="12.247821440323314"><ele>859.0</ele><time>2026-04-30T15:58:47Z</time></trkpt><trkpt lat="46.415754908502755" lon="12.247789090588107"><ele>858.9999999999999</ele><time>2026-04-30T15:58:48Z</time></trkpt><trkpt lat="46.41567498997343" lon="12.247742788362354"><ele>859.0</ele><time>2026-04-30T15:58:48.999Z</time></trkpt><trkpt lat="46.41560340402948" lon="12.247685599402725"><ele>859.0</ele><time>2026-04-30T15:58:49.999Z</time></trkpt><trkpt lat="46.41553871632581" lon="12.24762351942845"><ele>859.0</ele><time>2026-04-30T15:58:50.999Z</time></trkpt><trkpt lat="46.415491412314" lon="12.247550638208084"><ele>858.9999999999999</ele><time>2026-04-30T15:58:51.999Z</time></trkpt><trkpt lat="46.41545297710477" lon="12.247470372442276"><ele>859.0</ele><time>2026-04-30T15:58:52.999Z</time></trkpt><trkpt lat="46.415419487529945" lon="12.247364933403857"><ele>854.2</ele><time>2026-04-30T15:58:53.999Z</time></trkpt><trkpt lat="46.415405611370794" lon="12.247255459727208"><ele>849.4000000000001</ele><time>2026-04-30T15:58:54.999Z</time></trkpt><trkpt lat="46.41539485382139" lon="12.247143261578506"><ele>844.6</ele><time>2026-04-30T15:58:55.999Z</time></trkpt><trkpt lat="46.41540166731465" lon="12.247012834315282"><ele>839.8</ele><time>2026-04-30T15:58:56.999Z</time></trkpt><trkpt lat="46.41542377456015" lon="12.246849629217172"><ele>835.0</ele><time>2026-04-30T15:58:57.999Z</time></trkpt><trkpt lat="46.41544798025508" lon="12.246681314461359"><ele>837.8</ele><time>2026-04-30T15:58:58.999Z</time></trkpt><trkpt lat="46.41549153696033" lon="12.2465289972413"><ele>840.6</ele><time>2026-04-30T15:58:59.999Z</time></trkpt><trkpt lat="46.41553020938483" lon="12.246397763306057"><ele>843.4000000000001</ele><time>2026-04-30T15:59:00.999Z</time></trkpt><trkpt lat="46.4155945828287" lon="12.246275781781367"><ele>846.2</ele><time>2026-04-30T15:59:01.999Z</time></trkpt><trkpt lat="46.41566016336902" lon="12.246131345306733"><ele>849.0</ele><time>2026-04-30T15:59:02.999Z</time></trkpt><trkpt lat="46.41572824877911" lon="12.245985709683536"><ele>849.0</ele><time>2026-04-30T15:59:03.999Z</time></trkpt><trkpt lat="46.415795220107995" lon="12.245858877386105"><ele>849.0</ele><time>2026-04-30T15:59:04.999Z</time></trkpt><trkpt lat="46.415877970765685" lon="12.245724784637417"><ele>849.0</ele><time>2026-04-30T15:59:05.999Z</time></trkpt><trkpt lat="46.41597629648547" lon="12.245558625492466"><ele>849.0</ele><time>2026-04-30T15:59:06.999Z</time></trkpt><trkpt lat="46.41610248448045" lon="12.245345125113081"><ele>850.0</ele><time>2026-04-30T15:59:07.999Z</time></trkpt><trkpt lat="46.41620978964686" lon="12.245142994250166"><ele>851.0</ele><time>2026-04-30T15:59:08.999Z</time></trkpt><trkpt lat="46.41629463010666" lon="12.244983470312786"><ele>852.0</ele><time>2026-04-30T15:59:09.999Z</time></trkpt><trkpt lat="46.41639232337198" lon="12.244802817324022"><ele>849.2</ele><time>2026-04-30T15:59:10.999Z</time></trkpt><trkpt lat="46.41645768633999" lon="12.244672614251822"><ele>846.4000000000001</ele><time>2026-04-30T15:59:11.999Z</time></trkpt><trkpt lat="46.41654962289664" lon="12.244543315943183"><ele>843.5999999999999</ele><time>2026-04-30T15:59:12.999Z</time></trkpt><trkpt lat="46.4166159270324" lon="12.244430733023476"><ele>840.8</ele><time>2026-04-30T15:59:13.999Z</time></trkpt><trkpt lat="46.416682524292476" lon="12.244309858940783"><ele>838.0</ele><time>2026-04-30T15:59:14.999Z</time></trkpt><trkpt lat="46.416701224495675" lon="12.244193666195052"><ele>837.9999999999999</ele><time>2026-04-30T15:59:15.999Z</time></trkpt><trkpt lat="46.416691920870065" lon="12.244096941576595"><ele>838.0</ele><time>2026-04-30T15:59:16.999Z</time></trkpt><trkpt lat="46.41664449862869" lon="12.244001155466142"><ele>838.0</ele><time>2026-04-30T15:59:17.999Z</time></trkpt><trkpt lat="46.41657153865967" lon="12.243957916387185"><ele>838.0</ele><time>2026-04-30T15:59:18.999Z</time></trkpt><trkpt lat="46.41647220462099" lon="12.243889936936244"><ele>837.9999999999999</ele><time>2026-04-30T15:59:19.999Z</time></trkpt><trkpt lat="46.41641203278607" lon="12.24385905495119"><ele>838.0</ele><time>2026-04-30T15:59:20.999Z</time></trkpt><trkpt lat="46.41631368002288" lon="12.243812704506597"><ele>841.75</ele><time>2026-04-30T15:59:22.999Z</time></trkpt><trkpt lat="46.41617612833492" lon="12.243850350976366"><ele>845.5</ele><time>2026-04-30T15:59:24.999Z</time></trkpt><trkpt lat="46.41612485761588" lon="12.244014180839706"><ele>849.25</ele><time>2026-04-30T15:59:25.999Z</time></trkpt><trkpt lat="46.41603381191398" lon="12.244152101717715"><ele>853.0</ele><time>2026-04-30T15:59:26.999Z</time></trkpt><trkpt lat="46.41589148576327" lon="12.244252208236958"><ele>853.0</ele><time>2026-04-30T15:59:27.999Z</time></trkpt><trkpt lat="46.41573002045278" lon="12.244400850264253"><ele>853.0</ele><time>2026-04-30T15:59:28.999Z</time></trkpt><trkpt lat="46.41559824439341" lon="12.244529371402848"><ele>853.0</ele><time>2026-04-30T15:59:29.999Z</time></trkpt><trkpt lat="46.415516079427825" lon="12.244614587828766"><ele>853.0</ele><time>2026-04-30T15:59:30.999Z</time></trkpt><trkpt lat="46.41545102109777" lon="12.244682439172855"><ele>853.0</ele><time>2026-04-30T15:59:31.999Z</time></trkpt><trkpt lat="46.41538005571871" lon="12.244749984333806"><ele>853.0</ele><time>2026-04-30T15:59:33.999Z</time></trkpt><trkpt lat="46.41533426047145" lon="12.244611967827277"><ele>853.0</ele><time>2026-04-30T15:59:36.998Z</time></trkpt><trkpt lat="46.41546714869999" lon="12.244507995020387"><ele>853.0</ele><time>2026-04-30T15:59:37.998Z</time></trkpt><trkpt lat="46.41555414738576" lon="12.244355460887066"><ele>853.0</ele><time>2026-04-30T15:59:38.998Z</time></trkpt><trkpt lat="46.41560120071091" lon="12.244172089272736"><ele>853.0</ele><time>2026-04-30T15:59:39.998Z</time></trkpt><trkpt lat="46.41566331856384" lon="12.243984580034075"><ele>853.0</ele><time>2026-04-30T15:59:40.998Z</time></trkpt><trkpt lat="46.41574979268508" lon="12.243771843383385"><ele>853.0</ele><time>2026-04-30T15:59:41.998Z</time></trkpt><trkpt lat="46.41583398084218" lon="12.243563628236934"><ele>862.3333333333333</ele><time>2026-04-30T15:59:42.998Z</time></trkpt><trkpt lat="46.4159230694112" lon="12.243364962536058"><ele>871.6666666666667</ele><time>2026-04-30T15:59:43.998Z</time></trkpt><trkpt lat="46.415984461926996" lon="12.243141203798908"><ele>881.0</ele><time>2026-04-30T15:59:44.998Z</time></trkpt><trkpt lat="46.41606521218297" lon="12.242912194625688"><ele>885.25</ele><time>2026-04-30T15:59:45.998Z</time></trkpt><trkpt lat="46.41613375179296" lon="12.242697792177754"><ele>889.5</ele><time>2026-04-30T15:59:46.998Z</time></trkpt><trkpt lat="46.41620215884939" lon="12.242532683340627"><ele>893.75</ele><time>2026-04-30T15:59:47.998Z</time></trkpt><trkpt lat="46.41626369968667" lon="12.242412959628425"><ele>898.0</ele><time>2026-04-30T15:59:48.998Z</time></trkpt><trkpt lat="46.41630487645179" lon="12.242227109966333"><ele>891.0</ele><time>2026-04-30T15:59:49.998Z</time></trkpt><trkpt lat="46.41636216151922" lon="12.242026939066129"><ele>884.0</ele><time>2026-04-30T15:59:50.998Z</time></trkpt><trkpt lat="46.41641298570985" lon="12.241817237909064"><ele>877.0</ele><time>2026-04-30T15:59:51.998Z</time></trkpt><trkpt lat="46.416458928094904" lon="12.241632729580768"><ele>870.0</ele><time>2026-04-30T15:59:52.998Z</time></trkpt><trkpt lat="46.41646885281727" lon="12.241482802796687"><ele>873.8</ele><time>2026-04-30T15:59:53.998Z</time></trkpt><trkpt lat="46.416486409661225" lon="12.241357182883688"><ele>877.6</ele><time>2026-04-30T15:59:54.998Z</time></trkpt><trkpt lat="46.41649406608995" lon="12.241250045468057"><ele>881.4000000000001</ele><time>2026-04-30T15:59:55.998Z</time></trkpt><trkpt lat="46.416467580556834" lon="12.241093106481307"><ele>885.2</ele><time>2026-04-30T15:59:56.998Z</time></trkpt><trkpt lat="46.4164243972514" lon="12.240914674114697"><ele>889.0</ele><time>2026-04-30T15:59:57.998Z</time></trkpt><trkpt lat="46.41639423700444" lon="12.240736222185527"><ele>892.1666666666666</ele><time>2026-04-30T15:59:58.998Z</time></trkpt><trkpt lat="46.41637142504239" lon="12.240580209615782"><ele>895.3333333333333</ele><time>2026-04-30T15:59:59.998Z</time></trkpt><trkpt lat="46.41640175035828" lon="12.240460032191937"><ele>898.5</ele><time>2026-04-30T16:00:00.998Z</time></trkpt><trkpt lat="46.41642209760438" lon="12.240373527917676"><ele>901.6666666666667</ele><time>2026-04-30T16:00:01.998Z</time></trkpt><trkpt lat="46.41644560544543" lon="12.24027704979324"><ele>904.8333333333334</ele><time>2026-04-30T16:00:02.998Z</time></trkpt><trkpt lat="46.41646827109806" lon="12.240174712387187"><ele>908.0</ele><time>2026-04-30T16:00:03.998Z</time></trkpt><trkpt lat="46.41649695294006" lon="12.24003474154267"><ele>908.0</ele><time>2026-04-30T16:00:04.998Z</time></trkpt><trkpt lat="46.41651974419518" lon="12.239899293064735"><ele>908.0</ele><time>2026-04-30T16:00:05.998Z</time></trkpt><trkpt lat="46.416539327049335" lon="12.239760683125395"><ele>908.0</ele><time>2026-04-30T16:00:06.998Z</time></trkpt><trkpt lat="46.41655958372857" lon="12.239607856602019"><ele>908.0</ele><time>2026-04-30T16:00:07.998Z</time></trkpt><trkpt lat="46.416566719247925" lon="12.239466245968107"><ele>908.0</ele><time>2026-04-30T16:00:08.998Z</time></trkpt><trkpt lat="46.41655136556377" lon="12.239340312128782"><ele>908.4</ele><time>2026-04-30T16:00:09.998Z</time></trkpt><trkpt lat="46.41652388145052" lon="12.23919507145111"><ele>908.8</ele><time>2026-04-30T16:00:10.998Z</time></trkpt><trkpt lat="46.416486290753404" lon="12.239069589760934"><ele>909.2</ele><time>2026-04-30T16:00:11.998Z</time></trkpt><trkpt lat="46.416423660661174" lon="12.238977773235863"><ele>909.6</ele><time>2026-04-30T16:00:12.998Z</time></trkpt><trkpt lat="46.41634197099137" lon="12.238905686246877"><ele>910.0</ele><time>2026-04-30T16:00:13.998Z</time></trkpt><trkpt lat="46.4162556213015" lon="12.238808092042026"><ele>915.8333333333333</ele><time>2026-04-30T16:00:14.998Z</time></trkpt><trkpt lat="46.41618009002332" lon="12.238731640705863"><ele>921.6666666666666</ele><time>2026-04-30T16:00:15.998Z</time></trkpt><trkpt lat="46.41611728016052" lon="12.238667432883407"><ele>927.5</ele><time>2026-04-30T16:00:16.998Z</time></trkpt><trkpt lat="46.41606699555499" lon="12.238605339717594"><ele>933.3333333333333</ele><time>2026-04-30T16:00:17.998Z</time></trkpt><trkpt lat="46.41603076197858" lon="12.238515057568254"><ele>939.1666666666666</ele><time>2026-04-30T16:00:18.998Z</time></trkpt><trkpt lat="46.41597787121735" lon="12.238347035525045"><ele>945.0</ele><time>2026-04-30T16:00:20.998Z</time></trkpt><trkpt lat="46.4159485801567" lon="12.2382582806258"><ele>945.0</ele><time>2026-04-30T16:00:22.998Z</time></trkpt><trkpt lat="46.41590965333367" lon="12.238182474586594"><ele>945.0</ele><time>2026-04-30T16:00:26Z</time></trkpt><trkpt lat="46.415753065623264" lon="12.238298162184932"><ele>945.0</ele><time>2026-04-30T16:00:27Z</time></trkpt><trkpt lat="46.41565407197088" lon="12.238312504897548"><ele>945.0</ele><time>2026-04-30T16:00:28Z</time></trkpt><trkpt lat="46.41555269144192" lon="12.238347586675042"><ele>945.0</ele><time>2026-04-30T16:00:29Z</time></trkpt><trkpt lat="46.415481347397346" lon="12.238373775629766"><ele>954.5</ele><time>2026-04-30T16:00:30Z</time></trkpt><trkpt lat="46.415386422914466" lon="12.23841784935364"><ele>964.0</ele><time>2026-04-30T16:00:31Z</time></trkpt><trkpt lat="46.41530126145696" lon="12.238515119374624"><ele>973.5</ele><time>2026-04-30T16:00:32Z</time></trkpt><trkpt lat="46.41522178400124" lon="12.238658325874857"><ele>983.0</ele><time>2026-04-30T16:00:33Z</time></trkpt><trkpt lat="46.41515685481332" lon="12.238875573244089"><ele>981.8</ele><time>2026-04-30T16:00:34Z</time></trkpt><trkpt lat="46.4151229232911" lon="12.239082760370469"><ele>980.5999999999999</ele><time>2026-04-30T16:00:35Z</time></trkpt><trkpt lat="46.41509264218452" lon="12.239252844109801"><ele>979.4000000000001</ele><time>2026-04-30T16:00:36Z</time></trkpt><trkpt lat="46.41506747179797" lon="12.239392472371295"><ele>978.2</ele><time>2026-04-30T16:00:37Z</time></trkpt><trkpt lat="46.415037943378344" lon="12.23949819426404"><ele>977.0</ele><time>2026-04-30T16:00:38Z</time></trkpt><trkpt lat="46.41499087690949" lon="12.23957009479605"><ele>977.0</ele><time>2026-04-30T16:00:40Z</time></trkpt><trkpt lat="46.41497101272568" lon="12.239418599442397"><ele>977.0</ele><time>2026-04-30T16:00:43Z</time></trkpt><trkpt lat="46.41495420874297" lon="12.23929360043567"><ele>977.0</ele><time>2026-04-30T16:00:44Z</time></trkpt><trkpt lat="46.41496083305219" lon="12.23916431919724"><ele>977.0</ele><time>2026-04-30T16:00:45Z</time></trkpt><trkpt lat="46.414978534251574" lon="12.2390109333715"><ele>977.0</ele><time>2026-04-30T16:00:46Z</time></trkpt><trkpt lat="46.414995979902706" lon="12.238874232507756"><ele>977.4000000000001</ele><time>2026-04-30T16:00:47Z</time></trkpt><trkpt lat="46.415011091708756" lon="12.238681925935156"><ele>977.8000000000001</ele><time>2026-04-30T16:00:48Z</time></trkpt><trkpt lat="46.41499483885875" lon="12.238534748510586"><ele>978.2</ele><time>2026-04-30T16:00:49Z</time></trkpt><trkpt lat="46.414988241031935" lon="12.238363070030607"><ele>978.6</ele><time>2026-04-30T16:00:51Z</time></trkpt><trkpt lat="46.41494874571846" lon="12.238241099188922"><ele>979.0</ele><time>2026-04-30T16:00:56Z</time></trkpt><trkpt lat="46.41492311310916" lon="12.238100602116315"><ele>979.0</ele><time>2026-04-30T16:00:57.999Z</time></trkpt><trkpt lat="46.414913880631055" lon="12.237983021485334"><ele>979.0000000000001</ele><time>2026-04-30T16:00:58.999Z</time></trkpt><trkpt lat="46.414891182910644" lon="12.237891957315458"><ele>979.0000000000001</ele><time>2026-04-30T16:00:59.999Z</time></trkpt><trkpt lat="46.414832071889656" lon="12.237854946213103"><ele>979.0</ele><time>2026-04-30T16:01:00.999Z</time></trkpt><trkpt lat="46.41468424430875" lon="12.237911988448664"><ele>979.0</ele><time>2026-04-30T16:01:02.999Z</time></trkpt><trkpt lat="46.414637866937795" lon="12.23805111119171"><ele>987.1666666666666</ele><time>2026-04-30T16:01:03.999Z</time></trkpt><trkpt lat="46.41461881127832" lon="12.238171765675089"><ele>995.3333333333333</ele><time>2026-04-30T16:01:04.999Z</time></trkpt><trkpt lat="46.41460506700749" lon="12.238270763886103"><ele>1003.5</ele><time>2026-04-30T16:01:05.999Z</time></trkpt><trkpt lat="46.414594202192134" lon="12.238379851764677"><ele>1011.6666666666667</ele><time>2026-04-30T16:01:07.999Z</time></trkpt><trkpt lat="46.41458734403457" lon="12.238533784995617"><ele>1019.8333333333334</ele><time>2026-04-30T16:01:09.999Z</time></trkpt><trkpt lat="46.414586759851105" lon="12.238632848705107"><ele>1028.0</ele><time>2026-04-30T16:01:10.999Z</time></trkpt><trkpt lat="46.4145973097862" lon="12.238794785732074"><ele>1028.0</ele><time>2026-04-30T16:01:11.999Z</time></trkpt><trkpt lat="46.41460332927604" lon="12.238913398034882"><ele>1028.0</ele><time>2026-04-30T16:01:12.999Z</time></trkpt><trkpt lat="46.41458490302795" lon="12.239017622245001"><ele>1028.0</ele><time>2026-04-30T16:01:13.999Z</time></trkpt><trkpt lat="46.41453961791714" lon="12.239103613869117"><ele>1028.0</ele><time>2026-04-30T16:01:14.999Z</time></trkpt><trkpt lat="46.41448651944548" lon="12.239153849800248"><ele>1028.0</ele><time>2026-04-30T16:01:15.999Z</time></trkpt><trkpt lat="46.414406830866405" lon="12.23923631576676"><ele>1028.0</ele><time>2026-04-30T16:01:16.999Z</time></trkpt><trkpt lat="46.41432524720002" lon="12.239317758467081"><ele>1027.2</ele><time>2026-04-30T16:01:17.999Z</time></trkpt><trkpt lat="46.414240588026644" lon="12.239400199275574"><ele>1026.4</ele><time>2026-04-30T16:01:18.999Z</time></trkpt><trkpt lat="46.414158740385744" lon="12.239468612769564"><ele>1025.6000000000001</ele><time>2026-04-30T16:01:19.999Z</time></trkpt><trkpt lat="46.41408553564721" lon="12.239509873942565"><ele>1024.8</ele><time>2026-04-30T16:01:20.999Z</time></trkpt><trkpt lat="46.41395283123341" lon="12.23954407129631"><ele>1024.0</ele><time>2026-04-30T16:01:22.999Z</time></trkpt><trkpt lat="46.41320414675455" lon="12.238588668571392"><ele>1029.0</ele><time>2026-04-30T16:01:34.999Z</time></trkpt><trkpt lat="46.41319915521946" lon="12.23842517493005"><ele>1034.0</ele><time>2026-04-30T16:01:35.999Z</time></trkpt><trkpt lat="46.413208533182434" lon="12.23826454668273"><ele>1039.0</ele><time>2026-04-30T16:01:36.999Z</time></trkpt><trkpt lat="46.413221651223466" lon="12.238115889214198"><ele>1044.0</ele><time>2026-04-30T16:01:37.999Z</time></trkpt><trkpt lat="46.413205821950925" lon="12.238020429254268"><ele>1049.0</ele><time>2026-04-30T16:01:38.999Z</time></trkpt><trkpt lat="46.413162692819434" lon="12.237936065549235"><ele>1049.6000000000001</ele><time>2026-04-30T16:01:39.999Z</time></trkpt><trkpt lat="46.41308413758581" lon="12.237881742951519"><ele>1050.2</ele><time>2026-04-30T16:01:40.999Z</time></trkpt><trkpt lat="46.41297888537347" lon="12.237857107762407"><ele>1050.8000000000002</ele><time>2026-04-30T16:01:41.999Z</time></trkpt><trkpt lat="46.41287444024228" lon="12.23782661572534"><ele>1051.4</ele><time>2026-04-30T16:01:42.999Z</time></trkpt><trkpt lat="46.41277629261954" lon="12.23774472397678"><ele>1052.0</ele><time>2026-04-30T16:01:43.999Z</time></trkpt><trkpt lat="46.412676106364685" lon="12.237652670171416"><ele>1056.25</ele><time>2026-04-30T16:01:44.999Z</time></trkpt><trkpt lat="46.41258806431391" lon="12.23752329596525"><ele>1060.5</ele><time>2026-04-30T16:01:45.999Z</time></trkpt><trkpt lat="46.41251064818759" lon="12.237377833638611"><ele>1064.75</ele><time>2026-04-30T16:01:46.999Z</time></trkpt><trkpt lat="46.41245633891544" lon="12.237230803725351"><ele>1069.0</ele><time>2026-04-30T16:01:47.999Z</time></trkpt><trkpt lat="46.412397148156316" lon="12.23707676932837"><ele>1069.2</ele><time>2026-04-30T16:01:48.998Z</time></trkpt><trkpt lat="46.41235020375337" lon="12.236929585670715"><ele>1069.4</ele><time>2026-04-30T16:01:49.998Z</time></trkpt><trkpt lat="46.41224287658054" lon="12.236747385580642"><ele>1069.6</ele><time>2026-04-30T16:01:51.998Z</time></trkpt><trkpt lat="46.41217809519476" lon="12.23669306230222"><ele>1069.8</ele><time>2026-04-30T16:01:52.998Z</time></trkpt><trkpt lat="46.412116090924535" lon="12.23666319878382"><ele>1070.0</ele><time>2026-04-30T16:01:53.998Z</time></trkpt><trkpt lat="46.41204597633839" lon="12.236653403030298"><ele>1076.5</ele><time>2026-04-30T16:01:54.998Z</time></trkpt><trkpt lat="46.411955026995884" lon="12.236663640545542"><ele>1083.0</ele><time>2026-04-30T16:01:55.998Z</time></trkpt><trkpt lat="46.4118501713033" lon="12.23666694638268"><ele>1089.5</ele><time>2026-04-30T16:01:56.998Z</time></trkpt><trkpt lat="46.41172794844129" lon="12.236638507220771"><ele>1096.0</ele><time>2026-04-30T16:01:57.998Z</time></trkpt><trkpt lat="46.41159599458423" lon="12.236590254265053"><ele>1096.0</ele><time>2026-04-30T16:01:58.998Z</time></trkpt><trkpt lat="46.4114784808662" lon="12.236580800340926"><ele>1096.0</ele><time>2026-04-30T16:01:59.998Z</time></trkpt><trkpt lat="46.41134670659023" lon="12.236589045901262"><ele>1096.0</ele><time>2026-04-30T16:02:00.998Z</time></trkpt><trkpt lat="46.411185698591986" lon="12.236604500498201"><ele>1096.0</ele><time>2026-04-30T16:02:01.998Z</time></trkpt><trkpt lat="46.41103375464902" lon="12.236638898705298"><ele>1101.5</ele><time>2026-04-30T16:02:02.998Z</time></trkpt><trkpt lat="46.41089351217295" lon="12.236675717498812"><ele>1107.0</ele><time>2026-04-30T16:02:03.998Z</time></trkpt><trkpt lat="46.41074694639788" lon="12.236739688435275"><ele>1112.5</ele><time>2026-04-30T16:02:04.998Z</time></trkpt><trkpt lat="46.41065131042848" lon="12.236728785980217"><ele>1118.0</ele><time>2026-04-30T16:02:05.998Z</time></trkpt><trkpt lat="46.41056442065004" lon="12.236717115060472"><ele>1118.0</ele><time>2026-04-30T16:02:07.998Z</time></trkpt><trkpt lat="46.41050401278206" lon="12.236660293452038"><ele>1118.0</ele><time>2026-04-30T16:02:09.998Z</time></trkpt><trkpt lat="46.41054962669486" lon="12.236389729179827"><ele>1118.0</ele><time>2026-04-30T16:02:10.998Z</time></trkpt><trkpt lat="46.41063120558397" lon="12.236021516957114"><ele>1120.2</ele><time>2026-04-30T16:02:12.998Z</time></trkpt><trkpt lat="46.41068311679666" lon="12.235914288446516"><ele>1122.4</ele><time>2026-04-30T16:02:13.998Z</time></trkpt><trkpt lat="46.41074432340823" lon="12.235784126530888"><ele>1124.6000000000001</ele><time>2026-04-30T16:02:14.998Z</time></trkpt><trkpt lat="46.41079416247055" lon="12.235647875882764"><ele>1126.8</ele><time>2026-04-30T16:02:15.998Z</time></trkpt><trkpt lat="46.4108280429236" lon="12.23555562073774"><ele>1129.0</ele><time>2026-04-30T16:02:16.998Z</time></trkpt><trkpt lat="46.4108609832521" lon="12.235429224560233"><ele>1130.6000000000001</ele><time>2026-04-30T16:02:17.998Z</time></trkpt><trkpt lat="46.41087567038155" lon="12.235301606861047"><ele>1132.2</ele><time>2026-04-30T16:02:18.998Z</time></trkpt><trkpt lat="46.41085543747154" lon="12.23514268576113"><ele>1133.8000000000002</ele><time>2026-04-30T16:02:19.998Z</time></trkpt><trkpt lat="46.41082707458838" lon="12.234975802086623"><ele>1135.4</ele><time>2026-04-30T16:02:20.998Z</time></trkpt><trkpt lat="46.41077804894828" lon="12.234813145060334"><ele>1137.0</ele><time>2026-04-30T16:02:21.998Z</time></trkpt><trkpt lat="46.410733793337485" lon="12.234652324327758"><ele>1137.0</ele><time>2026-04-30T16:02:22.998Z</time></trkpt><trkpt lat="46.4106914622824" lon="12.23445421679386"><ele>1137.0</ele><time>2026-04-30T16:02:23.998Z</time></trkpt><trkpt lat="46.4106573219714" lon="12.23425954319379"><ele>1137.0</ele><time>2026-04-30T16:02:24.998Z</time></trkpt><trkpt lat="46.41061130230715" lon="12.234103567106889"><ele>1137.0</ele><time>2026-04-30T16:02:25.998Z</time></trkpt><trkpt lat="46.41058079975909" lon="12.234003263802528"><ele>1136.3333333333333</ele><time>2026-04-30T16:02:26.998Z</time></trkpt><trkpt lat="46.410540344048535" lon="12.233904007033036"><ele>1135.6666666666667</ele><time>2026-04-30T16:02:27.998Z</time></trkpt><trkpt lat="46.41049082544968" lon="12.233834133882338"><ele>1135.0</ele><time>2026-04-30T16:02:28.998Z</time></trkpt><trkpt lat="46.410429861559365" lon="12.233787755501737"><ele>1134.3333333333335</ele><time>2026-04-30T16:02:30Z</time></trkpt><trkpt lat="46.41035725466796" lon="12.233730764835313"><ele>1133.6666666666667</ele><time>2026-04-30T16:02:31Z</time></trkpt><trkpt lat="46.410268426971" lon="12.233701626596293"><ele>1133.0</ele><time>2026-04-30T16:02:32Z</time></trkpt><trkpt lat="46.410066244693375" lon="12.233701377098866"><ele>1136.6</ele><time>2026-04-30T16:02:34Z</time></trkpt><trkpt lat="46.40994868797832" lon="12.23369224784988"><ele>1140.1999999999998</ele><time>2026-04-30T16:02:35Z</time></trkpt><trkpt lat="46.40985228170723" lon="12.233660013107954"><ele>1143.8</ele><time>2026-04-30T16:02:36Z</time></trkpt><trkpt lat="46.409786041821846" lon="12.233595890255726"><ele>1147.3999999999999</ele><time>2026-04-30T16:02:37Z</time></trkpt><trkpt lat="46.40972701333952" lon="12.233472727934542"><ele>1151.0</ele><time>2026-04-30T16:02:38Z</time></trkpt><trkpt lat="46.409657262461224" lon="12.233412305104693"><ele>1151.0</ele><time>2026-04-30T16:02:39Z</time></trkpt><trkpt lat="46.40957576114442" lon="12.233384881815828"><ele>1151.0</ele><time>2026-04-30T16:02:40Z</time></trkpt><trkpt lat="46.409501313085265" lon="12.233325170543253"><ele>1151.0</ele><time>2026-04-30T16:02:41Z</time></trkpt><trkpt lat="46.40945111662736" lon="12.233252678435397"><ele>1151.0</ele><time>2026-04-30T16:02:42Z</time></trkpt><trkpt lat="46.40939703031839" lon="12.233171430557121"><ele>1151.0</ele><time>2026-04-30T16:02:43Z</time></trkpt><trkpt lat="46.40931908540966" lon="12.233064081411761"><ele>1151.0</ele><time>2026-04-30T16:02:45Z</time></trkpt><trkpt lat="46.40924459427013" lon="12.232964192834146"><ele>1154.2</ele><time>2026-04-30T16:02:47Z</time></trkpt><trkpt lat="46.40921187394522" lon="12.232880809437294"><ele>1157.3999999999999</ele><time>2026-04-30T16:02:48Z</time></trkpt><trkpt lat="46.40917451772817" lon="12.232784195474741"><ele>1160.6</ele><time>2026-04-30T16:02:49Z</time></trkpt><trkpt lat="46.40912350547954" lon="12.232646572150571"><ele>1163.8</ele><time>2026-04-30T16:02:51Z</time></trkpt><trkpt lat="46.40906021535819" lon="12.232522406761086"><ele>1167.0</ele><time>2026-04-30T16:02:53Z</time></trkpt><trkpt lat="46.408987648559155" lon="12.232350122418492"><ele>1169.5</ele><time>2026-04-30T16:02:55Z</time></trkpt><trkpt lat="46.40895934638924" lon="12.232246560724011"><ele>1172.0</ele><time>2026-04-30T16:02:56Z</time></trkpt><trkpt lat="46.408930044052006" lon="12.232145338633215"><ele>1174.5</ele><time>2026-04-30T16:02:57Z</time></trkpt><trkpt lat="46.408893575358164" lon="12.232059248854348"><ele>1177.0</ele><time>2026-04-30T16:02:58Z</time></trkpt><trkpt lat="46.40883071484492" lon="12.231905722727753"><ele>1179.5</ele><time>2026-04-30T16:03:00Z</time></trkpt><trkpt lat="46.408764159099405" lon="12.231845528854036"><ele>1182.0</ele><time>2026-04-30T16:03:01Z</time></trkpt><trkpt lat="46.40867303752718" lon="12.231796454328903"><ele>1182.0</ele><time>2026-04-30T16:03:02Z</time></trkpt><trkpt lat="46.408562106262536" lon="12.23172326091409"><ele>1182.0</ele><time>2026-04-30T16:03:03Z</time></trkpt><trkpt lat="46.408432668286" lon="12.231628356016147"><ele>1182.0</ele><time>2026-04-30T16:03:04Z</time></trkpt><trkpt lat="46.40830803276267" lon="12.231535346737722"><ele>1182.0</ele><time>2026-04-30T16:03:05Z</time></trkpt><trkpt lat="46.40819290507515" lon="12.231419839258638"><ele>1186.8</ele><time>2026-04-30T16:03:06Z</time></trkpt><trkpt lat="46.40810457816737" lon="12.231334102312028"><ele>1191.6</ele><time>2026-04-30T16:03:06.999Z</time></trkpt><trkpt lat="46.40803420280499" lon="12.231264455679668"><ele>1196.3999999999999</ele><time>2026-04-30T16:03:07.999Z</time></trkpt><trkpt lat="46.40797655248481" lon="12.231161526074583"><ele>1201.2</ele><time>2026-04-30T16:03:08.999Z</time></trkpt><trkpt lat="46.40790100780762" lon="12.231033125066146"><ele>1206.0</ele><time>2026-04-30T16:03:09.999Z</time></trkpt><trkpt lat="46.40782279773157" lon="12.230876322643846"><ele>1206.25</ele><time>2026-04-30T16:03:10.999Z</time></trkpt><trkpt lat="46.40773715195182" lon="12.230708154567044"><ele>1206.5</ele><time>2026-04-30T16:03:11.999Z</time></trkpt><trkpt lat="46.40763055106529" lon="12.230547984201735"><ele>1206.75</ele><time>2026-04-30T16:03:12.999Z</time></trkpt><trkpt lat="46.407551836541614" lon="12.23041325117527"><ele>1207.0</ele><time>2026-04-30T16:03:13.999Z</time></trkpt><trkpt lat="46.40737240243576" lon="12.230276214325798"><ele>1214.25</ele><time>2026-04-30T16:03:15.999Z</time></trkpt><trkpt lat="46.40725523657638" lon="12.230245931358635"><ele>1221.5</ele><time>2026-04-30T16:03:16.999Z</time></trkpt><trkpt lat="46.407122166568854" lon="12.230255086609684"><ele>1228.75</ele><time>2026-04-30T16:03:17.999Z</time></trkpt><trkpt lat="46.40699080643597" lon="12.230274773097683"><ele>1236.0</ele><time>2026-04-30T16:03:18.999Z</time></trkpt><trkpt lat="46.40682501404902" lon="12.230262213425588"><ele>1238.75</ele><time>2026-04-30T16:03:19.999Z</time></trkpt><trkpt lat="46.406688451085586" lon="12.23026754335101"><ele>1241.5</ele><time>2026-04-30T16:03:20.999Z</time></trkpt><trkpt lat="46.40655278711519" lon="12.230276739635087"><ele>1244.25</ele><time>2026-04-30T16:03:21.999Z</time></trkpt><trkpt lat="46.40644335440016" lon="12.230278994523111"><ele>1247.0</ele><time>2026-04-30T16:03:22.999Z</time></trkpt><trkpt lat="46.40636782870166" lon="12.23027616204527"><ele>1248.6</ele><time>2026-04-30T16:03:23.999Z</time></trkpt><trkpt lat="46.40628829622067" lon="12.230266318236477"><ele>1250.2</ele><time>2026-04-30T16:03:24.999Z</time></trkpt><trkpt lat="46.40622567358009" lon="12.230151891393179"><ele>1251.8</ele><time>2026-04-30T16:03:25.999Z</time></trkpt><trkpt lat="46.40616500381206" lon="12.230053747958916"><ele>1253.4</ele><time>2026-04-30T16:03:26.999Z</time></trkpt><trkpt lat="46.40611707464126" lon="12.229920349570529"><ele>1255.0</ele><time>2026-04-30T16:03:27.999Z</time></trkpt><trkpt lat="46.40605946623644" lon="12.229769317160633"><ele>1255.0</ele><time>2026-04-30T16:03:28.999Z</time></trkpt><trkpt lat="46.40596835288638" lon="12.229608874129271"><ele>1255.0</ele><time>2026-04-30T16:03:29.999Z</time></trkpt><trkpt lat="46.405910724768745" lon="12.229433007494183"><ele>1255.0</ele><time>2026-04-30T16:03:30.999Z</time></trkpt><trkpt lat="46.40589380876636" lon="12.229301486552721"><ele>1255.0</ele><time>2026-04-30T16:03:31.999Z</time></trkpt><trkpt lat="46.40587656628395" lon="12.229167377279111"><ele>1255.0</ele><time>2026-04-30T16:03:32.999Z</time></trkpt><trkpt lat="46.40584735271567" lon="12.229049578727563"><ele>1255.0</ele><time>2026-04-30T16:03:33.999Z</time></trkpt><trkpt lat="46.40579161498489" lon="12.228952657771272"><ele>1255.0</ele><time>2026-04-30T16:03:34.999Z</time></trkpt><trkpt lat="46.405615342409014" lon="12.228787740799667"><ele>1255.0</ele><time>2026-04-30T16:03:36.999Z</time></trkpt><trkpt lat="46.40549965607183" lon="12.228701305049864"><ele>1259.25</ele><time>2026-04-30T16:03:37.999Z</time></trkpt><trkpt lat="46.40537669738361" lon="12.228595086046152"><ele>1263.5</ele><time>2026-04-30T16:03:38.999Z</time></trkpt><trkpt lat="46.40525930643667" lon="12.228519902833709"><ele>1267.75</ele><time>2026-04-30T16:03:39.999Z</time></trkpt><trkpt lat="46.40516602375961" lon="12.228405215056345"><ele>1272.0</ele><time>2026-04-30T16:03:40.999Z</time></trkpt><trkpt lat="46.40508351145723" lon="12.228289146391425"><ele>1272.0</ele><time>2026-04-30T16:03:41.999Z</time></trkpt><trkpt lat="46.40498819696057" lon="12.228213507241502"><ele>1272.0</ele><time>2026-04-30T16:03:42.999Z</time></trkpt><trkpt lat="46.4048751161487" lon="12.228158754651655"><ele>1272.0</ele><time>2026-04-30T16:03:43.999Z</time></trkpt><trkpt lat="46.404765305532756" lon="12.228097048212494"><ele>1272.0</ele><time>2026-04-30T16:03:44.999Z</time></trkpt><trkpt lat="46.404654074575916" lon="12.228116897047965"><ele>1273.5</ele><time>2026-04-30T16:03:45.999Z</time></trkpt><trkpt lat="46.40454685417427" lon="12.228138927771772"><ele>1275.0</ele><time>2026-04-30T16:03:46.999Z</time></trkpt><trkpt lat="46.404437232169144" lon="12.228203506253505"><ele>1276.5</ele><time>2026-04-30T16:03:47.999Z</time></trkpt><trkpt lat="46.404332359657936" lon="12.22825928338643"><ele>1278.0</ele><time>2026-04-30T16:03:48.999Z</time></trkpt><trkpt lat="46.404198799860616" lon="12.228294274488613"><ele>1278.0</ele><time>2026-04-30T16:03:49.999Z</time></trkpt><trkpt lat="46.40406011482374" lon="12.2282905556327"><ele>1278.0</ele><time>2026-04-30T16:03:50.999Z</time></trkpt><trkpt lat="46.40390502862293" lon="12.228297657489787"><ele>1278.0</ele><time>2026-04-30T16:03:51.999Z</time></trkpt><trkpt lat="46.403751631326045" lon="12.228334599919643"><ele>1278.0</ele><time>2026-04-30T16:03:52.999Z</time></trkpt><trkpt lat="46.40360783134485" lon="12.228332413243212"><ele>1278.25</ele><time>2026-04-30T16:03:53.999Z</time></trkpt><trkpt lat="46.403506643936794" lon="12.228339165101552"><ele>1278.5</ele><time>2026-04-30T16:03:54.999Z</time></trkpt><trkpt lat="46.403426996554266" lon="12.228362299971565"><ele>1278.75</ele><time>2026-04-30T16:03:55.999Z</time></trkpt><trkpt lat="46.40321641402243" lon="12.22817289338771"><ele>1279.0</ele><time>2026-04-30T16:03:58.998Z</time></trkpt><trkpt lat="46.40314087297374" lon="12.228034256584492"><ele>1283.0</ele><time>2026-04-30T16:03:59.998Z</time></trkpt><trkpt lat="46.403067120228364" lon="12.227901688723373"><ele>1287.0</ele><time>2026-04-30T16:04:00.998Z</time></trkpt><trkpt lat="46.40300362945197" lon="12.227769034404984"><ele>1291.0</ele><time>2026-04-30T16:04:01.998Z</time></trkpt><trkpt lat="46.402902428567394" lon="12.227694205100082"><ele>1295.0</ele><time>2026-04-30T16:04:02.998Z</time></trkpt><trkpt lat="46.402785825910875" lon="12.22764486555265"><ele>1295.0</ele><time>2026-04-30T16:04:03.998Z</time></trkpt><trkpt lat="46.40266079764771" lon="12.227593105088388"><ele>1295.0</ele><time>2026-04-30T16:04:04.998Z</time></trkpt><trkpt lat="46.40253650264765" lon="12.227561771882119"><ele>1295.0</ele><time>2026-04-30T16:04:05.998Z</time></trkpt><trkpt lat="46.4024014721053" lon="12.22755676968432"><ele>1295.0</ele><time>2026-04-30T16:04:06.998Z</time></trkpt><trkpt lat="46.40227803863856" lon="12.227559729037393"><ele>1294.75</ele><time>2026-04-30T16:04:07.998Z</time></trkpt><trkpt lat="46.40214400188954" lon="12.227570018921813"><ele>1294.5</ele><time>2026-04-30T16:04:08.998Z</time></trkpt><trkpt lat="46.40200708721589" lon="12.227556132443237"><ele>1294.25</ele><time>2026-04-30T16:04:09.998Z</time></trkpt><trkpt lat="46.40187495551197" lon="12.227539818425528"><ele>1294.0</ele><time>2026-04-30T16:04:10.998Z</time></trkpt><trkpt lat="46.40174068913818" lon="12.227494658438028"><ele>1294.0</ele><time>2026-04-30T16:04:11.998Z</time></trkpt><trkpt lat="46.4016338758035" lon="12.227425330216604"><ele>1294.0</ele><time>2026-04-30T16:04:12.998Z</time></trkpt><trkpt lat="46.40155289657308" lon="12.227342402259156"><ele>1294.0</ele><time>2026-04-30T16:04:13.998Z</time></trkpt><trkpt lat="46.4014876992914" lon="12.22725975937732"><ele>1294.0</ele><time>2026-04-30T16:04:14.998Z</time></trkpt><trkpt lat="46.401430578814235" lon="12.227170420404295"><ele>1294.0</ele><time>2026-04-30T16:04:15.998Z</time></trkpt><trkpt lat="46.40137057143208" lon="12.227115982309753"><ele>1297.75</ele><time>2026-04-30T16:04:16.998Z</time></trkpt><trkpt lat="46.40120838547506" lon="12.226945228569795"><ele>1301.5</ele><time>2026-04-30T16:04:18.998Z</time></trkpt><trkpt lat="46.40111857764086" lon="12.226832237984203"><ele>1305.25</ele><time>2026-04-30T16:04:19.998Z</time></trkpt><trkpt lat="46.401039091568265" lon="12.226683019578253"><ele>1309.0</ele><time>2026-04-30T16:04:20.998Z</time></trkpt><trkpt lat="46.40096804695761" lon="12.226522090691285"><ele>1314.25</ele><time>2026-04-30T16:04:21.998Z</time></trkpt><trkpt lat="46.40088302070216" lon="12.226362732197813"><ele>1319.5</ele><time>2026-04-30T16:04:22.998Z</time></trkpt><trkpt lat="46.40079279629645" lon="12.22621907453977"><ele>1324.75</ele><time>2026-04-30T16:04:23.998Z</time></trkpt><trkpt lat="46.40071506946121" lon="12.22610984406062"><ele>1330.0</ele><time>2026-04-30T16:04:24.998Z</time></trkpt><trkpt lat="46.40065304913889" lon="12.225988855722758"><ele>1330.0</ele><time>2026-04-30T16:04:25.998Z</time></trkpt><trkpt lat="46.400585690352806" lon="12.225889518471035"><ele>1330.0</ele><time>2026-04-30T16:04:26.998Z</time></trkpt><trkpt lat="46.400535117347495" lon="12.225789473341615"><ele>1330.0</ele><time>2026-04-30T16:04:27.998Z</time></trkpt><trkpt lat="46.40049858663469" lon="12.225674994814382"><ele>1330.0</ele><time>2026-04-30T16:04:28.998Z</time></trkpt><trkpt lat="46.40048528793073" lon="12.225556103275213"><ele>1330.0</ele><time>2026-04-30T16:04:29.998Z</time></trkpt><trkpt lat="46.400469289819746" lon="12.225411940981811"><ele>1333.6</ele><time>2026-04-30T16:04:30.998Z</time></trkpt><trkpt lat="46.40042414428752" lon="12.225321330877911"><ele>1337.2</ele><time>2026-04-30T16:04:31.998Z</time></trkpt><trkpt lat="46.400369134121064" lon="12.22522589691229"><ele>1340.8000000000002</ele><time>2026-04-30T16:04:32.998Z</time></trkpt><trkpt lat="46.40029262191962" lon="12.225130125377758"><ele>1344.4</ele><time>2026-04-30T16:04:33.998Z</time></trkpt><trkpt lat="46.40019632496811" lon="12.225026269147875"><ele>1348.0</ele><time>2026-04-30T16:04:34.998Z</time></trkpt><trkpt lat="46.40009109278417" lon="12.224922213604732"><ele>1354.0</ele><time>2026-04-30T16:04:36Z</time></trkpt><trkpt lat="46.39999586419886" lon="12.224809018198568"><ele>1360.0</ele><time>2026-04-30T16:04:37Z</time></trkpt><trkpt lat="46.39990499169186" lon="12.224712292694129"><ele>1366.0</ele><time>2026-04-30T16:04:38Z</time></trkpt><trkpt lat="46.399749826020326" lon="12.224503830205006"><ele>1372.0</ele><time>2026-04-30T16:04:40Z</time></trkpt><trkpt lat="46.39969921997882" lon="12.224409366453365"><ele>1372.0</ele><time>2026-04-30T16:04:41Z</time></trkpt><trkpt lat="46.399671304394296" lon="12.224318694560683"><ele>1372.0</ele><time>2026-04-30T16:04:42Z</time></trkpt><trkpt lat="46.399667313270754" lon="12.224179973214333"><ele>1372.0</ele><time>2026-04-30T16:04:43Z</time></trkpt><trkpt lat="46.399661735762244" lon="12.224061315255332"><ele>1372.0</ele><time>2026-04-30T16:04:44Z</time></trkpt><trkpt lat="46.39966172310266" lon="12.22392719593076"><ele>1372.0</ele><time>2026-04-30T16:04:45Z</time></trkpt><trkpt lat="46.39964118005971" lon="12.223819022885992"><ele>1372.0</ele><time>2026-04-30T16:04:46Z</time></trkpt><trkpt lat="46.39960193092696" lon="12.22364308469811"><ele>1373.1666666666665</ele><time>2026-04-30T16:04:48Z</time></trkpt><trkpt lat="46.39953540849419" lon="12.223517972238666"><ele>1374.3333333333333</ele><time>2026-04-30T16:04:49Z</time></trkpt><trkpt lat="46.39947074222452" lon="12.223440255805576"><ele>1375.5</ele><time>2026-04-30T16:04:50Z</time></trkpt><trkpt lat="46.39938839878198" lon="12.223434491657985"><ele>1376.6666666666667</ele><time>2026-04-30T16:04:51Z</time></trkpt><trkpt lat="46.39931296266458" lon="12.22340977147757"><ele>1377.8333333333335</ele><time>2026-04-30T16:04:52Z</time></trkpt><trkpt lat="46.39925206880814" lon="12.223380539457272"><ele>1379.0</ele><time>2026-04-30T16:04:53Z</time></trkpt><trkpt lat="46.39915132806142" lon="12.223289711751498"><ele>1379.0</ele><time>2026-04-30T16:04:55Z</time></trkpt><trkpt lat="46.39908452111277" lon="12.223197025845309"><ele>1379.0</ele><time>2026-04-30T16:04:56Z</time></trkpt><trkpt lat="46.39899414325354" lon="12.223087660509771"><ele>1379.0</ele><time>2026-04-30T16:04:57Z</time></trkpt><trkpt lat="46.39890129611678" lon="12.222998310222652"><ele>1379.0</ele><time>2026-04-30T16:04:58Z</time></trkpt><trkpt lat="46.39884058269588" lon="12.22289933260679"><ele>1379.0</ele><time>2026-04-30T16:04:59Z</time></trkpt><trkpt lat="46.3987516772027" lon="12.222688683634127"><ele>1380.0</ele><time>2026-04-30T16:05:01Z</time></trkpt><trkpt lat="46.39871379282102" lon="12.222576807098335"><ele>1381.0</ele><time>2026-04-30T16:05:02Z</time></trkpt><trkpt lat="46.39869240975834" lon="12.222487982022184"><ele>1382.0</ele><time>2026-04-30T16:05:03Z</time></trkpt><trkpt lat="46.39864820676455" lon="12.222365048308596"><ele>1383.0</ele><time>2026-04-30T16:05:26.999Z</time></trkpt><trkpt lat="46.39853980777772" lon="12.222146420550862"><ele>1384.0</ele><time>2026-04-30T16:05:29.999Z</time></trkpt><trkpt lat="46.39848581966621" lon="12.222053507749655"><ele>1387.5</ele><time>2026-04-30T16:05:30.999Z</time></trkpt><trkpt lat="46.398441828201605" lon="12.221934809668582"><ele>1391.0</ele><time>2026-04-30T16:05:31.999Z</time></trkpt><trkpt lat="46.39838841222433" lon="12.22178180565951"><ele>1394.5</ele><time>2026-04-30T16:05:32.999Z</time></trkpt><trkpt lat="46.398324561432354" lon="12.221624752365331"><ele>1398.0</ele><time>2026-04-30T16:05:33.999Z</time></trkpt><trkpt lat="46.39825647036447" lon="12.221445605393708"><ele>1400.0</ele><time>2026-04-30T16:05:34.999Z</time></trkpt><trkpt lat="46.39822445651839" lon="12.22131129215866"><ele>1402.0</ele><time>2026-04-30T16:05:35.999Z</time></trkpt><trkpt lat="46.398202217787606" lon="12.221176046318034"><ele>1404.0</ele><time>2026-04-30T16:05:36.999Z</time></trkpt><trkpt lat="46.39818067665871" lon="12.221036273558104"><ele>1406.0</ele><time>2026-04-30T16:05:37.999Z</time></trkpt><trkpt lat="46.39816706752979" lon="12.220922478287987"><ele>1408.0</ele><time>2026-04-30T16:05:38.999Z</time></trkpt><trkpt lat="46.39812654364769" lon="12.220786155132176"><ele>1408.0</ele><time>2026-04-30T16:05:40.999Z</time></trkpt><trkpt lat="46.39806361946831" lon="12.220695644310299"><ele>1408.0</ele><time>2026-04-30T16:05:41.999Z</time></trkpt><trkpt lat="46.397966958968354" lon="12.220601689433396"><ele>1408.0</ele><time>2026-04-30T16:05:42.999Z</time></trkpt><trkpt lat="46.39789426274974" lon="12.220497776462022"><ele>1408.0</ele><time>2026-04-30T16:05:43.999Z</time></trkpt><trkpt lat="46.39783339463235" lon="12.22039190124896"><ele>1408.0</ele><time>2026-04-30T16:05:44.999Z</time></trkpt><trkpt lat="46.397786736561955" lon="12.220219735364767"><ele>1409.6666666666665</ele><time>2026-04-30T16:05:45.999Z</time></trkpt><trkpt lat="46.39773149841892" lon="12.220021127011389"><ele>1411.3333333333333</ele><time>2026-04-30T16:05:46.999Z</time></trkpt><trkpt lat="46.39768255923342" lon="12.219874795789867"><ele>1413.0</ele><time>2026-04-30T16:05:47.999Z</time></trkpt><trkpt lat="46.3975716917805" lon="12.219593325874055"><ele>1413.0</ele><time>2026-04-30T16:05:49.999Z</time></trkpt><trkpt lat="46.39752891867863" lon="12.219418008872058"><ele>1413.0</ele><time>2026-04-30T16:05:50.999Z</time></trkpt><trkpt lat="46.39749960233983" lon="12.21922045690407"><ele>1413.0</ele><time>2026-04-30T16:05:51.999Z</time></trkpt><trkpt lat="46.397462655219" lon="12.219008530606086"><ele>1413.0</ele><time>2026-04-30T16:05:52.999Z</time></trkpt><trkpt lat="46.39739430718654" lon="12.218811973979529"><ele>1413.5</ele><time>2026-04-30T16:05:53.999Z</time></trkpt><trkpt lat="46.39728770145201" lon="12.21865204653751"><ele>1414.0</ele><time>2026-04-30T16:05:54.999Z</time></trkpt><trkpt lat="46.39722572472807" lon="12.218479936108922"><ele>1414.5</ele><time>2026-04-30T16:05:55.999Z</time></trkpt><trkpt lat="46.397159891208034" lon="12.218347639684392"><ele>1415.0</ele><time>2026-04-30T16:05:56.999Z</time></trkpt><trkpt lat="46.39706881535187" lon="12.218232147099721"><ele>1419.0</ele><time>2026-04-30T16:05:57.999Z</time></trkpt><trkpt lat="46.3969433641707" lon="12.218136500239396"><ele>1423.0</ele><time>2026-04-30T16:05:58.999Z</time></trkpt><trkpt lat="46.396816597393546" lon="12.218035185117351"><ele>1427.0</ele><time>2026-04-30T16:05:59.999Z</time></trkpt><trkpt lat="46.396697511607435" lon="12.217896355317007"><ele>1431.0</ele><time>2026-04-30T16:06:00.999Z</time></trkpt><trkpt lat="46.39664151129028" lon="12.217762295790864"><ele>1431.0</ele><time>2026-04-30T16:06:01.999Z</time></trkpt><trkpt lat="46.396544805403316" lon="12.217669796649835"><ele>1431.0</ele><time>2026-04-30T16:06:02.999Z</time></trkpt><trkpt lat="46.39645849993844" lon="12.217551363595426"><ele>1431.0</ele><time>2026-04-30T16:06:03.999Z</time></trkpt><trkpt lat="46.3963853749618" lon="12.217400637044532"><ele>1431.0</ele><time>2026-04-30T16:06:04.999Z</time></trkpt><trkpt lat="46.396308100652575" lon="12.217288445676397"><ele>1432.0</ele><time>2026-04-30T16:06:05.999Z</time></trkpt><trkpt lat="46.396245196834286" lon="12.217168931446812"><ele>1433.0</ele><time>2026-04-30T16:06:06.999Z</time></trkpt><trkpt lat="46.39621495737152" lon="12.217044405960191"><ele>1434.0</ele><time>2026-04-30T16:06:07.999Z</time></trkpt><trkpt lat="46.39616155679138" lon="12.21694450302995"><ele>1435.0</ele><time>2026-04-30T16:06:08.998Z</time></trkpt><trkpt lat="46.395987908596" lon="12.216762071480192"><ele>1435.0</ele><time>2026-04-30T16:06:10.998Z</time></trkpt><trkpt lat="46.395900842282074" lon="12.216677198896846"><ele>1435.0</ele><time>2026-04-30T16:06:11.998Z</time></trkpt><trkpt lat="46.395824176124364" lon="12.216590495933197"><ele>1435.0</ele><time>2026-04-30T16:06:12.998Z</time></trkpt><trkpt lat="46.39576503622172" lon="12.216509439642106"><ele>1435.0</ele><time>2026-04-30T16:06:13.998Z</time></trkpt><trkpt lat="46.39570118318993" lon="12.216392548185004"><ele>1435.0</ele><time>2026-04-30T16:06:14.998Z</time></trkpt><trkpt lat="46.395659951646955" lon="12.216255595777088"><ele>1437.0</ele><time>2026-04-30T16:06:15.998Z</time></trkpt><trkpt lat="46.39563211268989" lon="12.216122882694156"><ele>1439.0</ele><time>2026-04-30T16:06:16.998Z</time></trkpt><trkpt lat="46.395604588856884" lon="12.216006306694918"><ele>1441.0</ele><time>2026-04-30T16:06:17.998Z</time></trkpt><trkpt lat="46.395532990077456" lon="12.215875764817415"><ele>1443.0</ele><time>2026-04-30T16:06:19.998Z</time></trkpt><trkpt lat="46.39545843123445" lon="12.215873306919837"><ele>1445.0</ele><time>2026-04-30T16:06:20.998Z</time></trkpt><trkpt lat="46.395397356052115" lon="12.215901865692567"><ele>1447.0</ele><time>2026-04-30T16:06:21.998Z</time></trkpt><trkpt lat="46.39528543391049" lon="12.215896930499309"><ele>1447.0</ele><time>2026-04-30T16:06:22.998Z</time></trkpt><trkpt lat="46.3951788427041" lon="12.215938975265153"><ele>1447.0</ele><time>2026-04-30T16:06:23.998Z</time></trkpt><trkpt lat="46.39509145947558" lon="12.216009743872792"><ele>1447.0</ele><time>2026-04-30T16:06:24.998Z</time></trkpt><trkpt lat="46.395021362715816" lon="12.21609621017819"><ele>1447.0</ele><time>2026-04-30T16:06:25.998Z</time></trkpt><trkpt lat="46.39495944746067" lon="12.2162212095377"><ele>1447.0</ele><time>2026-04-30T16:06:26.998Z</time></trkpt><trkpt lat="46.39491370998039" lon="12.216333822301237"><ele>1447.0</ele><time>2026-04-30T16:06:27.998Z</time></trkpt><trkpt lat="46.3948400572282" lon="12.216387288604942"><ele>1447.0</ele><time>2026-04-30T16:06:29.998Z</time></trkpt><trkpt lat="46.39477368645832" lon="12.21618627970912"><ele>1447.0</ele><time>2026-04-30T16:06:31.998Z</time></trkpt><trkpt lat="46.39476837338607" lon="12.216023582998181"><ele>1447.0</ele><time>2026-04-30T16:06:32.998Z</time></trkpt><trkpt lat="46.394747724652916" lon="12.215837505380268"><ele>1449.75</ele><time>2026-04-30T16:06:33.998Z</time></trkpt><trkpt lat="46.39471623249734" lon="12.215622384495239"><ele>1452.5</ele><time>2026-04-30T16:06:34.998Z</time></trkpt><trkpt lat="46.39467637835621" lon="12.215426604495875"><ele>1455.25</ele><time>2026-04-30T16:06:35.998Z</time></trkpt><trkpt lat="46.39463194997269" lon="12.21524147892244"><ele>1458.0</ele><time>2026-04-30T16:06:36.998Z</time></trkpt><trkpt lat="46.39458061211405" lon="12.215090752120233"><ele>1462.0</ele><time>2026-04-30T16:06:37.998Z</time></trkpt><trkpt lat="46.39453762232032" lon="12.214972455489871"><ele>1466.0</ele><time>2026-04-30T16:06:38.998Z</time></trkpt><trkpt lat="46.39447579969041" lon="12.214875401528301"><ele>1470.0</ele><time>2026-04-30T16:06:39.998Z</time></trkpt><trkpt lat="46.39438030867149" lon="12.214800602772264"><ele>1474.0</ele><time>2026-04-30T16:06:40.998Z</time></trkpt><trkpt lat="46.39427406955481" lon="12.214696695340345"><ele>1478.0</ele><time>2026-04-30T16:06:42Z</time></trkpt><trkpt lat="46.394166208821126" lon="12.214593463307216"><ele>1478.8333333333335</ele><time>2026-04-30T16:06:43Z</time></trkpt><trkpt lat="46.39408456237431" lon="12.214487145085496"><ele>1479.6666666666667</ele><time>2026-04-30T16:06:44Z</time></trkpt><trkpt lat="46.39403696727244" lon="12.214414702784214"><ele>1480.5</ele><time>2026-04-30T16:06:45Z</time></trkpt><trkpt lat="46.394039084262715" lon="12.214308048913209"><ele>1481.3333333333333</ele><time>2026-04-30T16:06:46Z</time></trkpt><trkpt lat="46.394077706222916" lon="12.214205295645636"><ele>1482.1666666666665</ele><time>2026-04-30T16:06:47Z</time></trkpt><trkpt lat="46.39414301388973" lon="12.21412754232445"><ele>1483.0</ele><time>2026-04-30T16:06:48Z</time></trkpt><trkpt lat="46.39422397870638" lon="12.214113892775439"><ele>1483.0</ele><time>2026-04-30T16:06:49Z</time></trkpt><trkpt lat="46.3942978210865" lon="12.214155630552598"><ele>1483.0</ele><time>2026-04-30T16:06:50Z</time></trkpt><trkpt lat="46.39439609608872" lon="12.214167414782688"><ele>1483.0</ele><time>2026-04-30T16:06:52Z</time></trkpt><trkpt lat="46.39445511401762" lon="12.2139924329719"><ele>1483.0</ele><time>2026-04-30T16:06:54Z</time></trkpt><trkpt lat="46.3944502126159" lon="12.213859056207784"><ele>1483.0</ele><time>2026-04-30T16:06:55Z</time></trkpt><trkpt lat="46.39445851432498" lon="12.213704275774507"><ele>1486.2</ele><time>2026-04-30T16:06:56Z</time></trkpt><trkpt lat="46.39450455855035" lon="12.213563838528318"><ele>1489.4</ele><time>2026-04-30T16:06:57Z</time></trkpt><trkpt lat="46.39458127643306" lon="12.213465646731187"><ele>1492.6000000000001</ele><time>2026-04-30T16:06:58Z</time></trkpt><trkpt lat="46.39467124636267" lon="12.213403663481648"><ele>1495.8000000000002</ele><time>2026-04-30T16:06:59Z</time></trkpt><trkpt lat="46.394787863496695" lon="12.213470275986003"><ele>1499.0</ele><time>2026-04-30T16:07:00Z</time></trkpt><trkpt lat="46.39485653261448" lon="12.213442357872967"><ele>1499.0</ele><time>2026-04-30T16:07:01Z</time></trkpt><trkpt lat="46.39493693777404" lon="12.213402629677683"><ele>1499.0</ele><time>2026-04-30T16:07:03Z</time></trkpt><trkpt lat="46.394901557451256" lon="12.21321814349683"><ele>1499.0</ele><time>2026-04-30T16:07:05Z</time></trkpt><trkpt lat="46.39478839696864" lon="12.213173007233355"><ele>1499.0</ele><time>2026-04-30T16:07:06Z</time></trkpt><trkpt lat="46.39467777076773" lon="12.213083956143569"><ele>1506.25</ele><time>2026-04-30T16:07:07Z</time></trkpt><trkpt lat="46.39454425960946" lon="12.213014872296053"><ele>1513.5</ele><time>2026-04-30T16:07:08Z</time></trkpt><trkpt lat="46.39441112817305" lon="12.212981164659265"><ele>1520.75</ele><time>2026-04-30T16:07:09Z</time></trkpt><trkpt lat="46.39428515376023" lon="12.212952629267258"><ele>1528.0</ele><time>2026-04-30T16:07:10Z</time></trkpt><trkpt lat="46.39417600537675" lon="12.212927450084536"><ele>1528.0</ele><time>2026-04-30T16:07:11Z</time></trkpt><trkpt lat="46.394063683951885" lon="12.213000531556862"><ele>1528.0</ele><time>2026-04-30T16:07:12Z</time></trkpt><trkpt lat="46.39396120789382" lon="12.21303082051012"><ele>1528.0</ele><time>2026-04-30T16:07:13Z</time></trkpt><trkpt lat="46.39380238099723" lon="12.213061481753286"><ele>1528.0</ele><time>2026-04-30T16:07:15Z</time></trkpt><trkpt lat="46.39371800698429" lon="12.213010504697634"><ele>1528.25</ele><time>2026-04-30T16:07:16Z</time></trkpt><trkpt lat="46.39360216419126" lon="12.212939486564789"><ele>1528.5</ele><time>2026-04-30T16:07:17Z</time></trkpt><trkpt lat="46.39348819906023" lon="12.212892574321682"><ele>1528.75</ele><time>2026-04-30T16:07:18Z</time></trkpt><trkpt lat="46.39335978949817" lon="12.212905121369952"><ele>1529.0</ele><time>2026-04-30T16:07:19Z</time></trkpt><trkpt lat="46.39324218196014" lon="12.212910238694343"><ele>1529.0</ele><time>2026-04-30T16:07:20Z</time></trkpt><trkpt lat="46.39315746432431" lon="12.212927169479615"><ele>1529.0</ele><time>2026-04-30T16:07:21Z</time></trkpt><trkpt lat="46.39307501682827" lon="12.21288210841868"><ele>1529.0</ele><time>2026-04-30T16:07:23Z</time></trkpt><trkpt lat="46.39311521310612" lon="12.212712289038333"><ele>1529.0</ele><time>2026-04-30T16:07:25Z</time></trkpt><trkpt lat="46.39321664009604" lon="12.212661555082411"><ele>1529.0</ele><time>2026-04-30T16:07:25.999Z</time></trkpt><trkpt lat="46.39331223755578" lon="12.212600963690894"><ele>1529.0</ele><time>2026-04-30T16:07:26.999Z</time></trkpt><trkpt lat="46.393371562163296" lon="12.212529494367686"><ele>1529.0</ele><time>2026-04-30T16:07:27.999Z</time></trkpt><trkpt lat="46.39334025257665" lon="12.212380223539276"><ele>1529.0</ele><time>2026-04-30T16:07:29.999Z</time></trkpt><trkpt lat="46.3932798304792" lon="12.212343590074386"><ele>1529.0</ele><time>2026-04-30T16:07:30.999Z</time></trkpt><trkpt lat="46.39320652670581" lon="12.212349359870336"><ele>1529.0</ele><time>2026-04-30T16:07:31.999Z</time></trkpt><trkpt lat="46.393124372682266" lon="12.212405261745502"><ele>1529.0</ele><time>2026-04-30T16:07:32.999Z</time></trkpt><trkpt lat="46.39301653314787" lon="12.212440408034228"><ele>1532.5</ele><time>2026-04-30T16:07:33.999Z</time></trkpt><trkpt lat="46.39283900484536" lon="12.21253045728251"><ele>1536.0</ele><time>2026-04-30T16:07:36.999Z</time></trkpt><trkpt lat="46.39287144368963" lon="12.212369843491683"><ele>1539.5</ele><time>2026-04-30T16:07:38.999Z</time></trkpt><trkpt lat="46.39292684190198" lon="12.212271314968216"><ele>1543.0</ele><time>2026-04-30T16:07:39.999Z</time></trkpt><trkpt lat="46.39302030242471" lon="12.212128601484158"><ele>1545.0</ele><time>2026-04-30T16:07:40.999Z</time></trkpt><trkpt lat="46.393124090437716" lon="12.211983182141461"><ele>1547.0</ele><time>2026-04-30T16:07:41.999Z</time></trkpt><trkpt lat="46.393225505257234" lon="12.211870372218039"><ele>1549.0</ele><time>2026-04-30T16:07:42.999Z</time></trkpt><trkpt lat="46.39332647128807" lon="12.211810709113141"><ele>1551.0</ele><time>2026-04-30T16:07:43.999Z</time></trkpt><trkpt lat="46.39342658926764" lon="12.211792183602402"><ele>1551.0</ele><time>2026-04-30T16:07:44.999Z</time></trkpt><trkpt lat="46.39349552503408" lon="12.2118092941918"><ele>1551.0</ele><time>2026-04-30T16:07:45.999Z</time></trkpt><trkpt lat="46.39354643667674" lon="12.21170892655257"><ele>1551.0</ele><time>2026-04-30T16:07:47.999Z</time></trkpt><trkpt lat="46.39346731430158" lon="12.211601853043899"><ele>1551.0</ele><time>2026-04-30T16:07:49.999Z</time></trkpt><trkpt lat="46.39335561689644" lon="12.211608543421065"><ele>1551.0</ele><time>2026-04-30T16:07:50.999Z</time></trkpt><trkpt lat="46.393232270170344" lon="12.211598888970927"><ele>1551.0</ele><time>2026-04-30T16:07:51.999Z</time></trkpt><trkpt lat="46.39310304488809" lon="12.211583422772978"><ele>1551.0</ele><time>2026-04-30T16:07:52.999Z</time></trkpt><trkpt lat="46.39300748989393" lon="12.211579452369001"><ele>1551.0</ele><time>2026-04-30T16:07:53.999Z</time></trkpt><trkpt lat="46.39292464775114" lon="12.21161919081843"><ele>1551.0</ele><time>2026-04-30T16:07:54.999Z</time></trkpt><trkpt lat="46.39276116271317" lon="12.21180736675606"><ele>1553.0</ele><time>2026-04-30T16:07:56.999Z</time></trkpt><trkpt lat="46.39267707991179" lon="12.211866109166332"><ele>1555.0</ele><time>2026-04-30T16:07:58.999Z</time></trkpt><trkpt lat="46.392688709596406" lon="12.211719202731375"><ele>1557.0</ele><time>2026-04-30T16:08:01.999Z</time></trkpt><trkpt lat="46.39275030873872" lon="12.211629332278351"><ele>1559.0</ele><time>2026-04-30T16:08:02.999Z</time></trkpt><trkpt lat="46.392804834314944" lon="12.211505694025956"><ele>1561.0</ele><time>2026-04-30T16:08:03.999Z</time></trkpt><trkpt lat="46.39284312857951" lon="12.211356732697833"><ele>1563.0</ele><time>2026-04-30T16:08:04.999Z</time></trkpt><trkpt lat="46.392899705595966" lon="12.211207905538561"><ele>1565.0</ele><time>2026-04-30T16:08:05.999Z</time></trkpt><trkpt lat="46.39299518822063" lon="12.2111001623608"><ele>1567.0</ele><time>2026-04-30T16:08:06.999Z</time></trkpt><trkpt lat="46.393114935854534" lon="12.211060034083927"><ele>1569.0</ele><time>2026-04-30T16:08:07.999Z</time></trkpt><trkpt lat="46.393230105274725" lon="12.211059044968234"><ele>1569.0</ele><time>2026-04-30T16:08:08.999Z</time></trkpt><trkpt lat="46.393316101445734" lon="12.211011516643907"><ele>1569.0</ele><time>2026-04-30T16:08:09.999Z</time></trkpt><trkpt lat="46.39339370728235" lon="12.21098189949776"><ele>1569.0</ele><time>2026-04-30T16:08:10.999Z</time></trkpt><trkpt lat="46.39345465845313" lon="12.210908076123118"><ele>1569.0</ele><time>2026-04-30T16:08:11.999Z</time></trkpt><trkpt lat="46.39350929001799" lon="12.210809377645576"><ele>1569.0</ele><time>2026-04-30T16:08:12.999Z</time></trkpt><trkpt lat="46.39355266571395" lon="12.210710494437276"><ele>1569.0</ele><time>2026-04-30T16:08:13.999Z</time></trkpt><trkpt lat="46.39357655053195" lon="12.210609321296946"><ele>1570.8000000000002</ele><time>2026-04-30T16:08:14.998Z</time></trkpt><trkpt lat="46.39357188598105" lon="12.210499195445157"><ele>1572.6000000000001</ele><time>2026-04-30T16:08:15.998Z</time></trkpt><trkpt lat="46.39353250657368" lon="12.210305328392952"><ele>1574.4</ele><time>2026-04-30T16:08:17.998Z</time></trkpt><trkpt lat="46.39349832188593" lon="12.210207690602092"><ele>1576.2</ele><time>2026-04-30T16:08:18.998Z</time></trkpt><trkpt lat="46.39346735816868" lon="12.210092958621113"><ele>1578.0</ele><time>2026-04-30T16:08:19.998Z</time></trkpt><trkpt lat="46.39344422486519" lon="12.20996555684838"><ele>1578.0</ele><time>2026-04-30T16:08:20.998Z</time></trkpt><trkpt lat="46.39341495288534" lon="12.209849503693878"><ele>1578.0</ele><time>2026-04-30T16:08:21.998Z</time></trkpt><trkpt lat="46.39338535387926" lon="12.209728429515643"><ele>1578.0</ele><time>2026-04-30T16:08:22.998Z</time></trkpt><trkpt lat="46.393361485273665" lon="12.209606778387558"><ele>1578.0</ele><time>2026-04-30T16:08:23.998Z</time></trkpt><trkpt lat="46.39334714915433" lon="12.209496723117883"><ele>1578.0</ele><time>2026-04-30T16:08:24.998Z</time></trkpt><trkpt lat="46.393349695947336" lon="12.209397800845604"><ele>1578.0</ele><time>2026-04-30T16:08:25.998Z</time></trkpt><trkpt lat="46.3933694659984" lon="12.209272534685374"><ele>1579.0</ele><time>2026-04-30T16:08:27.998Z</time></trkpt><trkpt lat="46.3933154521477" lon="12.209185736755938"><ele>1580.0</ele><time>2026-04-30T16:08:30.998Z</time></trkpt><trkpt lat="46.39322257107768" lon="12.209186719583393"><ele>1581.0</ele><time>2026-04-30T16:08:32.998Z</time></trkpt><trkpt lat="46.393180526803505" lon="12.209085996472425"><ele>1582.0</ele><time>2026-04-30T16:08:34.998Z</time></trkpt><trkpt lat="46.39311263920207" lon="12.209035388360153"><ele>1583.0</ele><time>2026-04-30T16:08:38.998Z</time></trkpt><trkpt lat="46.39311254910029" lon="12.209187374210469"><ele>1584.0</ele><time>2026-04-30T16:15:30.998Z</time></trkpt><trkpt lat="46.393178826602146" lon="12.209207573109191"><ele>1584.0</ele><time>2026-04-30T16:15:32.998Z</time></trkpt><trkpt lat="46.39328552726241" lon="12.20920518640912"><ele>1584.0</ele><time>2026-04-30T16:15:34.998Z</time></trkpt><trkpt lat="46.39338586998377" lon="12.209178725990496"><ele>1584.0</ele><time>2026-04-30T16:15:36.998Z</time></trkpt><trkpt lat="46.39347132785529" lon="12.209127450345584"><ele>1584.0</ele><time>2026-04-30T16:15:38.998Z</time></trkpt><trkpt lat="46.39357997835083" lon="12.208992024235684"><ele>1584.0</ele><time>2026-04-30T16:15:40.998Z</time></trkpt><trkpt lat="46.393615263959056" lon="12.208870016074437"><ele>1583.0</ele><time>2026-04-30T16:15:41.998Z</time></trkpt><trkpt lat="46.39363424626907" lon="12.208758430819064"><ele>1582.0</ele><time>2026-04-30T16:15:42.998Z</time></trkpt><trkpt lat="46.39366391641554" lon="12.208619087392124"><ele>1581.0</ele><time>2026-04-30T16:15:43.998Z</time></trkpt><trkpt lat="46.39370911156021" lon="12.208499859229892"><ele>1580.0</ele><time>2026-04-30T16:15:44.998Z</time></trkpt><trkpt lat="46.39375539531242" lon="12.208393611597783"><ele>1579.0</ele><time>2026-04-30T16:15:45.998Z</time></trkpt><trkpt lat="46.39382997605757" lon="12.208325735213942"><ele>1578.0</ele><time>2026-04-30T16:15:46.998Z</time></trkpt><trkpt lat="46.39388876577945" lon="12.20827971057163"><ele>1582.0</ele><time>2026-04-30T16:15:47.998Z</time></trkpt><trkpt lat="46.39395592844227" lon="12.208296609859456"><ele>1586.0</ele><time>2026-04-30T16:15:48.998Z</time></trkpt><trkpt lat="46.39401897563526" lon="12.208444292394088"><ele>1590.0</ele><time>2026-04-30T16:15:50.998Z</time></trkpt><trkpt lat="46.39409844016419" lon="12.208522432064017"><ele>1594.0</ele><time>2026-04-30T16:15:51.998Z</time></trkpt><trkpt lat="46.39419692318012" lon="12.2085723900841"><ele>1598.0</ele><time>2026-04-30T16:15:52.998Z</time></trkpt><trkpt lat="46.39429658207153" lon="12.208546241570014"><ele>1597.9999999999998</ele><time>2026-04-30T16:15:53.998Z</time></trkpt><trkpt lat="46.394385523770175" lon="12.20850395233075"><ele>1598.0</ele><time>2026-04-30T16:15:54.998Z</time></trkpt><trkpt lat="46.39445750357834" lon="12.20840542272505"><ele>1598.0</ele><time>2026-04-30T16:15:56Z</time></trkpt><trkpt lat="46.394517037003574" lon="12.208297423482628"><ele>1598.0</ele><time>2026-04-30T16:15:57Z</time></trkpt><trkpt lat="46.39457936946927" lon="12.208198777873708"><ele>1597.9999999999998</ele><time>2026-04-30T16:15:58Z</time></trkpt><trkpt lat="46.39461178417389" lon="12.20811446828621"><ele>1598.0</ele><time>2026-04-30T16:15:59Z</time></trkpt><trkpt lat="46.39468932165143" lon="12.20802825487475"><ele>1598.3333333333333</ele><time>2026-04-30T16:16:01Z</time></trkpt><trkpt lat="46.39477018660527" lon="12.208024553210187"><ele>1598.6666666666665</ele><time>2026-04-30T16:16:02Z</time></trkpt><trkpt lat="46.394839692633155" lon="12.208044485677929"><ele>1599.0</ele><time>2026-04-30T16:16:03Z</time></trkpt><trkpt lat="46.394938028266004" lon="12.208069978963225"><ele>1599.3333333333335</ele><time>2026-04-30T16:16:04Z</time></trkpt><trkpt lat="46.39501069297661" lon="12.208097837418126"><ele>1599.6666666666667</ele><time>2026-04-30T16:16:05Z</time></trkpt><trkpt lat="46.39510083987372" lon="12.208122356827456"><ele>1600.0</ele><time>2026-04-30T16:16:06Z</time></trkpt><trkpt lat="46.39517824241612" lon="12.208166378848436"><ele>1600.0000000000002</ele><time>2026-04-30T16:16:07Z</time></trkpt><trkpt lat="46.39526078686541" lon="12.208187415551835"><ele>1600.0</ele><time>2026-04-30T16:16:08Z</time></trkpt><trkpt lat="46.395352150053554" lon="12.20818779643733"><ele>1600.0</ele><time>2026-04-30T16:16:09Z</time></trkpt><trkpt lat="46.39544786420996" lon="12.20814403649396"><ele>1600.0</ele><time>2026-04-30T16:16:10Z</time></trkpt><trkpt lat="46.395539872204225" lon="12.208127971571646"><ele>1600.0000000000002</ele><time>2026-04-30T16:16:11Z</time></trkpt><trkpt lat="46.39561764550039" lon="12.208122043335232"><ele>1600.0</ele><time>2026-04-30T16:16:12Z</time></trkpt><trkpt lat="46.39571943041262" lon="12.208139326355537"><ele>1598.6666666666667</ele><time>2026-04-30T16:16:13Z</time></trkpt><trkpt lat="46.395799968385454" lon="12.208138847491071"><ele>1597.3333333333335</ele><time>2026-04-30T16:16:14Z</time></trkpt><trkpt lat="46.39590307765153" lon="12.208132072898659"><ele>1596.0</ele><time>2026-04-30T16:16:15Z</time></trkpt><trkpt lat="46.395978879329135" lon="12.208123673664526"><ele>1594.6666666666665</ele><time>2026-04-30T16:16:16Z</time></trkpt><trkpt lat="46.39602150001254" lon="12.208217672516664"><ele>1593.3333333333333</ele><time>2026-04-30T16:16:18Z</time></trkpt><trkpt lat="46.39605615777875" lon="12.208295758784011"><ele>1592.0</ele><time>2026-04-30T16:16:19Z</time></trkpt><trkpt lat="46.39611699208152" lon="12.20842206146126"><ele>1592.0</ele><time>2026-04-30T16:16:20Z</time></trkpt><trkpt lat="46.396162518314874" lon="12.208534336784147"><ele>1592.0</ele><time>2026-04-30T16:16:21Z</time></trkpt><trkpt lat="46.39621609931962" lon="12.208656276594768"><ele>1592.0</ele><time>2026-04-30T16:16:22Z</time></trkpt><trkpt lat="46.39627546867617" lon="12.208748722787355"><ele>1592.0</ele><time>2026-04-30T16:16:23Z</time></trkpt><trkpt lat="46.396315242874586" lon="12.208849370706796"><ele>1592.0</ele><time>2026-04-30T16:16:24Z</time></trkpt><trkpt lat="46.396416984227955" lon="12.20895905764627"><ele>1589.4999999999998</ele><time>2026-04-30T16:16:26Z</time></trkpt><trkpt lat="46.39651013157465" lon="12.208926903485345"><ele>1587.0</ele><time>2026-04-30T16:16:28Z</time></trkpt><trkpt lat="46.39654677407543" lon="12.20877197124244"><ele>1584.5</ele><time>2026-04-30T16:16:30Z</time></trkpt><trkpt lat="46.3965653739183" lon="12.208665053569229"><ele>1582.0</ele><time>2026-04-30T16:16:31Z</time></trkpt><trkpt lat="46.39656492086384" lon="12.208559545312339"><ele>1579.4999999999998</ele><time>2026-04-30T16:16:32Z</time></trkpt><trkpt lat="46.39655229005152" lon="12.208435109028715"><ele>1577.0</ele><time>2026-04-30T16:16:33Z</time></trkpt><trkpt lat="46.39656844153775" lon="12.208287973877397"><ele>1576.9999999999998</ele><time>2026-04-30T16:16:34Z</time></trkpt><trkpt lat="46.39657356469183" lon="12.208162057368021"><ele>1577.0</ele><time>2026-04-30T16:16:35Z</time></trkpt><trkpt lat="46.39656575199067" lon="12.208054850670464"><ele>1577.0</ele><time>2026-04-30T16:16:35.999Z</time></trkpt><trkpt lat="46.396590211841925" lon="12.207959181393596"><ele>1577.0</ele><time>2026-04-30T16:16:36.999Z</time></trkpt><trkpt lat="46.396619070767386" lon="12.20786393190258"><ele>1576.9999999999998</ele><time>2026-04-30T16:16:37.999Z</time></trkpt><trkpt lat="46.39665993362299" lon="12.20774173369109"><ele>1577.0</ele><time>2026-04-30T16:16:38.999Z</time></trkpt><trkpt lat="46.39670864138764" lon="12.207591118731205"><ele>1576.0</ele><time>2026-04-30T16:16:39.999Z</time></trkpt><trkpt lat="46.396768292823666" lon="12.207441806288635"><ele>1575.0</ele><time>2026-04-30T16:16:40.999Z</time></trkpt><trkpt lat="46.3967838986582" lon="12.207285541079195"><ele>1574.0</ele><time>2026-04-30T16:16:41.999Z</time></trkpt><trkpt lat="46.396788247075925" lon="12.207147707025408"><ele>1573.0</ele><time>2026-04-30T16:16:42.999Z</time></trkpt><trkpt lat="46.39678226872387" lon="12.207008140084442"><ele>1572.0</ele><time>2026-04-30T16:16:43.999Z</time></trkpt><trkpt lat="46.39674861654062" lon="12.206855226076934"><ele>1570.5</ele><time>2026-04-30T16:16:44.999Z</time></trkpt><trkpt lat="46.396744395857674" lon="12.206758077785686"><ele>1569.0</ele><time>2026-04-30T16:16:45.999Z</time></trkpt><trkpt lat="46.39672364270318" lon="12.206634564452687"><ele>1567.5</ele><time>2026-04-30T16:16:46.999Z</time></trkpt><trkpt lat="46.39672657799381" lon="12.206535282617377"><ele>1566.0</ele><time>2026-04-30T16:16:47.999Z</time></trkpt><trkpt lat="46.39674201756656" lon="12.206400638998836"><ele>1564.5</ele><time>2026-04-30T16:16:48.999Z</time></trkpt><trkpt lat="46.39676733346206" lon="12.206224421191752"><ele>1563.0</ele><time>2026-04-30T16:16:49.999Z</time></trkpt><trkpt lat="46.39678001667174" lon="12.206068109347356"><ele>1561.2</ele><time>2026-04-30T16:16:50.999Z</time></trkpt><trkpt lat="46.39678540839877" lon="12.205952796329704"><ele>1559.4</ele><time>2026-04-30T16:16:51.999Z</time></trkpt><trkpt lat="46.39679077161949" lon="12.205800269706263"><ele>1557.6000000000001</ele><time>2026-04-30T16:16:52.999Z</time></trkpt><trkpt lat="46.396790828245166" lon="12.205673540342131"><ele>1555.8000000000002</ele><time>2026-04-30T16:16:53.999Z</time></trkpt><trkpt lat="46.39678699808201" lon="12.205532228752707"><ele>1554.0</ele><time>2026-04-30T16:16:54.999Z</time></trkpt><trkpt lat="46.39677997362216" lon="12.205404136437979"><ele>1553.8000000000002</ele><time>2026-04-30T16:16:55.999Z</time></trkpt><trkpt lat="46.39676823399376" lon="12.205273844997171"><ele>1553.6000000000001</ele><time>2026-04-30T16:16:56.999Z</time></trkpt><trkpt lat="46.39675046250946" lon="12.205156610235013"><ele>1553.4</ele><time>2026-04-30T16:16:57.999Z</time></trkpt><trkpt lat="46.39671927677821" lon="12.20504789178172"><ele>1553.2</ele><time>2026-04-30T16:16:58.999Z</time></trkpt><trkpt lat="46.396633407524604" lon="12.204985006954331"><ele>1553.0</ele><time>2026-04-30T16:16:59.999Z</time></trkpt><trkpt lat="46.39653473899735" lon="12.204920732638831"><ele>1554.2</ele><time>2026-04-30T16:17:00.999Z</time></trkpt><trkpt lat="46.39647659341083" lon="12.204795434163161"><ele>1555.4</ele><time>2026-04-30T16:17:01.999Z</time></trkpt><trkpt lat="46.39646135555572" lon="12.204650747435446"><ele>1556.6000000000001</ele><time>2026-04-30T16:17:02.999Z</time></trkpt><trkpt lat="46.39646712939533" lon="12.204496921436423"><ele>1557.8000000000002</ele><time>2026-04-30T16:17:03.999Z</time></trkpt><trkpt lat="46.39649794327557" lon="12.204341090274605"><ele>1559.0</ele><time>2026-04-30T16:17:04.999Z</time></trkpt><trkpt lat="46.396492418866494" lon="12.204201178613099"><ele>1558.9999999999998</ele><time>2026-04-30T16:17:05.999Z</time></trkpt><trkpt lat="46.39649022695386" lon="12.204103568669677"><ele>1559.0</ele><time>2026-04-30T16:17:06.999Z</time></trkpt><trkpt lat="46.396481900441714" lon="12.203981662926997"><ele>1559.0</ele><time>2026-04-30T16:17:07.999Z</time></trkpt><trkpt lat="46.39644719478829" lon="12.203860824633779"><ele>1559.0</ele><time>2026-04-30T16:17:08.999Z</time></trkpt><trkpt lat="46.39641166924878" lon="12.203747058720937"><ele>1558.9999999999998</ele><time>2026-04-30T16:17:09.999Z</time></trkpt><trkpt lat="46.39637684765808" lon="12.20363420174722"><ele>1559.0</ele><time>2026-04-30T16:17:10.999Z</time></trkpt><trkpt lat="46.39635802628537" lon="12.203545253905556"><ele>1559.9999999999998</ele><time>2026-04-30T16:17:11.999Z</time></trkpt><trkpt lat="46.39638770597882" lon="12.203399138558725"><ele>1561.0</ele><time>2026-04-30T16:17:13.999Z</time></trkpt><trkpt lat="46.39644294127603" lon="12.203328595964258"><ele>1562.0</ele><time>2026-04-30T16:17:14.999Z</time></trkpt><trkpt lat="46.39649304585991" lon="12.203221849171761"><ele>1563.0</ele><time>2026-04-30T16:17:15.999Z</time></trkpt><trkpt lat="46.396532724018805" lon="12.203102475035335"><ele>1563.9999999999998</ele><time>2026-04-30T16:17:16.999Z</time></trkpt><trkpt lat="46.396525137254194" lon="12.202976222658604"><ele>1565.0</ele><time>2026-04-30T16:17:17.999Z</time></trkpt><trkpt lat="46.3964815512743" lon="12.20283142509322"><ele>1567.2</ele><time>2026-04-30T16:17:18.999Z</time></trkpt><trkpt lat="46.39642522761466" lon="12.202675521252157"><ele>1569.4</ele><time>2026-04-30T16:17:19.999Z</time></trkpt><trkpt lat="46.396386061650276" lon="12.202521101023459"><ele>1571.6</ele><time>2026-04-30T16:17:20.999Z</time></trkpt><trkpt lat="46.39633592996004" lon="12.20241664873533"><ele>1573.8</ele><time>2026-04-30T16:17:21.999Z</time></trkpt><trkpt lat="46.39630932138237" lon="12.20228934972529"><ele>1576.0</ele><time>2026-04-30T16:17:22.999Z</time></trkpt><trkpt lat="46.39629146065106" lon="12.202194124489582"><ele>1576.6</ele><time>2026-04-30T16:17:23.999Z</time></trkpt><trkpt lat="46.39629421231428" lon="12.20199456380409"><ele>1577.1999999999998</ele><time>2026-04-30T16:17:25.998Z</time></trkpt><trkpt lat="46.39631256445324" lon="12.201879037472287"><ele>1577.8000000000002</ele><time>2026-04-30T16:17:26.998Z</time></trkpt><trkpt lat="46.39634133944763" lon="12.201757970254794"><ele>1578.4</ele><time>2026-04-30T16:17:27.998Z</time></trkpt><trkpt lat="46.3963701896787" lon="12.201619540164877"><ele>1579.0</ele><time>2026-04-30T16:17:29.998Z</time></trkpt><trkpt lat="46.39641613383595" lon="12.201508199396631"><ele>1576.8000000000002</ele><time>2026-04-30T16:17:30.998Z</time></trkpt><trkpt lat="46.39644425683918" lon="12.201417227788104"><ele>1574.6000000000001</ele><time>2026-04-30T16:17:31.998Z</time></trkpt><trkpt lat="46.396479875626895" lon="12.201313151044365"><ele>1572.4</ele><time>2026-04-30T16:17:32.998Z</time></trkpt><trkpt lat="46.396541379954776" lon="12.201163835750542"><ele>1570.2</ele><time>2026-04-30T16:17:33.998Z</time></trkpt><trkpt lat="46.39661914049659" lon="12.201031934429498"><ele>1568.0</ele><time>2026-04-30T16:17:34.998Z</time></trkpt><trkpt lat="46.39667136285438" lon="12.200935749689899"><ele>1568.0</ele><time>2026-04-30T16:17:35.998Z</time></trkpt><trkpt lat="46.396712058028925" lon="12.200840790669004"><ele>1568.0</ele><time>2026-04-30T16:17:36.998Z</time></trkpt><trkpt lat="46.396724193496304" lon="12.20066912186099"><ele>1568.0</ele><time>2026-04-30T16:17:37.998Z</time></trkpt><trkpt lat="46.39672907008731" lon="12.200530034108327"><ele>1568.0</ele><time>2026-04-30T16:17:38.998Z</time></trkpt><trkpt lat="46.396746486967345" lon="12.200397538385667"><ele>1568.0</ele><time>2026-04-30T16:17:39.998Z</time></trkpt><trkpt lat="46.39676238691368" lon="12.200262967010092"><ele>1566.4</ele><time>2026-04-30T16:17:40.998Z</time></trkpt><trkpt lat="46.39678008482111" lon="12.200135498886404"><ele>1564.8000000000002</ele><time>2026-04-30T16:17:41.998Z</time></trkpt><trkpt lat="46.39682471375341" lon="12.200042027081906"><ele>1563.2</ele><time>2026-04-30T16:17:42.998Z</time></trkpt><trkpt lat="46.396849867497636" lon="12.199915241623803"><ele>1561.6</ele><time>2026-04-30T16:17:43.998Z</time></trkpt><trkpt lat="46.396893201077035" lon="12.19976027924231"><ele>1560.0</ele><time>2026-04-30T16:17:44.998Z</time></trkpt><trkpt lat="46.39693999476954" lon="12.199604429784108"><ele>1558.5</ele><time>2026-04-30T16:17:45.998Z</time></trkpt><trkpt lat="46.39697723593893" lon="12.199479717486675"><ele>1557.0</ele><time>2026-04-30T16:17:46.998Z</time></trkpt><trkpt lat="46.397015903770225" lon="12.199369203212202"><ele>1555.5</ele><time>2026-04-30T16:17:47.998Z</time></trkpt><trkpt lat="46.39708692765513" lon="12.199273575029016"><ele>1554.0</ele><time>2026-04-30T16:17:49.998Z</time></trkpt><trkpt lat="46.39717919712675" lon="12.199243801242707"><ele>1552.5</ele><time>2026-04-30T16:17:51.998Z</time></trkpt><trkpt lat="46.39724953128121" lon="12.199220017093166"><ele>1551.0</ele><time>2026-04-30T16:17:52.998Z</time></trkpt><trkpt lat="46.39733353801611" lon="12.199172776657495"><ele>1554.6</ele><time>2026-04-30T16:17:53.998Z</time></trkpt><trkpt lat="46.397415160636164" lon="12.199006498040443"><ele>1558.1999999999998</ele><time>2026-04-30T16:17:55.998Z</time></trkpt><trkpt lat="46.39745159532771" lon="12.198884105873075"><ele>1561.8000000000002</ele><time>2026-04-30T16:17:56.998Z</time></trkpt><trkpt lat="46.397497031863715" lon="12.198818496513594"><ele>1565.4</ele><time>2026-04-30T16:17:57.998Z</time></trkpt><trkpt lat="46.39757130827359" lon="12.198727987602327"><ele>1569.0</ele><time>2026-04-30T16:17:59.998Z</time></trkpt><trkpt lat="46.39764540008106" lon="12.198673252629044"><ele>1569.0</ele><time>2026-04-30T16:18:00.998Z</time></trkpt><trkpt lat="46.39770591197321" lon="12.198708060895633"><ele>1569.0</ele><time>2026-04-30T16:18:02Z</time></trkpt><trkpt lat="46.397792253458064" lon="12.198770529058251"><ele>1569.0</ele><time>2026-04-30T16:18:03Z</time></trkpt><trkpt lat="46.39786240015974" lon="12.198819800812256"><ele>1569.0</ele><time>2026-04-30T16:18:04Z</time></trkpt><trkpt lat="46.39793319465793" lon="12.198878334884071"><ele>1569.0</ele><time>2026-04-30T16:18:05Z</time></trkpt><trkpt lat="46.3979975286752" lon="12.198910262891829"><ele>1569.0</ele><time>2026-04-30T16:18:06Z</time></trkpt><trkpt lat="46.39806762761779" lon="12.198887075735424"><ele>1571.5</ele><time>2026-04-30T16:18:07Z</time></trkpt><trkpt lat="46.39813534489584" lon="12.19881511711671"><ele>1574.0</ele><time>2026-04-30T16:18:08Z</time></trkpt><trkpt lat="46.39819680137972" lon="12.198717902120482"><ele>1576.5</ele><time>2026-04-30T16:18:09Z</time></trkpt><trkpt lat="46.398258742008785" lon="12.198641052078573"><ele>1579.0</ele><time>2026-04-30T16:18:10Z</time></trkpt><trkpt lat="46.3983245102955" lon="12.198578631574918"><ele>1581.5</ele><time>2026-04-30T16:18:11Z</time></trkpt><trkpt lat="46.39839840092477" lon="12.198501552121344"><ele>1584.0</ele><time>2026-04-30T16:18:12Z</time></trkpt><trkpt lat="46.398459930660536" lon="12.198426335430655"><ele>1584.0</ele><time>2026-04-30T16:18:13Z</time></trkpt><trkpt lat="46.39851801098069" lon="12.198357946890274"><ele>1584.0</ele><time>2026-04-30T16:18:14Z</time></trkpt><trkpt lat="46.398564667427436" lon="12.198294866784396"><ele>1584.0</ele><time>2026-04-30T16:18:15Z</time></trkpt><trkpt lat="46.398682760268535" lon="12.198300556075578"><ele>1584.0</ele><time>2026-04-30T16:18:17Z</time></trkpt><trkpt lat="46.39871983346222" lon="12.198376084217845"><ele>1584.0</ele><time>2026-04-30T16:18:18Z</time></trkpt><trkpt lat="46.398791461039146" lon="12.19854660786451"><ele>1586.5</ele><time>2026-04-30T16:18:20Z</time></trkpt><trkpt lat="46.39884617230733" lon="12.198619054578742"><ele>1589.0</ele><time>2026-04-30T16:18:21Z</time></trkpt><trkpt lat="46.398931898291" lon="12.198625717764273"><ele>1591.5</ele><time>2026-04-30T16:18:23Z</time></trkpt><trkpt lat="46.39898488689629" lon="12.19856019730428"><ele>1594.0</ele><time>2026-04-30T16:18:24Z</time></trkpt><trkpt lat="46.398989361025684" lon="12.198460078607011"><ele>1596.5</ele><time>2026-04-30T16:18:25Z</time></trkpt><trkpt lat="46.39897627181627" lon="12.198344572077554"><ele>1599.0</ele><time>2026-04-30T16:18:26Z</time></trkpt><trkpt lat="46.39899203286092" lon="12.198200721628046"><ele>1599.4</ele><time>2026-04-30T16:18:27Z</time></trkpt><trkpt lat="46.39901086205348" lon="12.198044998904464"><ele>1599.8000000000002</ele><time>2026-04-30T16:18:28Z</time></trkpt><trkpt lat="46.39900947232478" lon="12.19790607687708"><ele>1600.1999999999998</ele><time>2026-04-30T16:18:29Z</time></trkpt><trkpt lat="46.39898978682858" lon="12.197749560165063"><ele>1600.6</ele><time>2026-04-30T16:18:30Z</time></trkpt><trkpt lat="46.39896746292414" lon="12.197595965988254"><ele>1601.0</ele><time>2026-04-30T16:18:31Z</time></trkpt><trkpt lat="46.39896221632999" lon="12.197440484472306"><ele>1601.6</ele><time>2026-04-30T16:18:32Z</time></trkpt><trkpt lat="46.39895729148738" lon="12.197292952010027"><ele>1602.1999999999998</ele><time>2026-04-30T16:18:33Z</time></trkpt><trkpt lat="46.39896082130497" lon="12.197169032720502"><ele>1602.8000000000002</ele><time>2026-04-30T16:18:34Z</time></trkpt><trkpt lat="46.398956205525" lon="12.197029890659996"><ele>1603.4</ele><time>2026-04-30T16:18:35Z</time></trkpt><trkpt lat="46.3989701088342" lon="12.196882916352875"><ele>1604.0</ele><time>2026-04-30T16:18:36Z</time></trkpt><trkpt lat="46.39892556438434" lon="12.19671029801714"><ele>1604.0</ele><time>2026-04-30T16:18:37Z</time></trkpt><trkpt lat="46.39887671238857" lon="12.196562629775826"><ele>1604.0</ele><time>2026-04-30T16:18:38Z</time></trkpt><trkpt lat="46.39883345878269" lon="12.19642173600831"><ele>1604.0</ele><time>2026-04-30T16:18:39Z</time></trkpt><trkpt lat="46.398781924098266" lon="12.196294274106497"><ele>1604.0</ele><time>2026-04-30T16:18:40Z</time></trkpt><trkpt lat="46.39878559519022" lon="12.19613277255014"><ele>1604.0</ele><time>2026-04-30T16:18:41.999Z</time></trkpt><trkpt lat="46.39882414317083" lon="12.196057571679793"><ele>1604.6666666666665</ele><time>2026-04-30T16:18:42.999Z</time></trkpt><trkpt lat="46.398873764188956" lon="12.195986155405237"><ele>1605.3333333333333</ele><time>2026-04-30T16:18:43.999Z</time></trkpt><trkpt lat="46.39889389020059" lon="12.195897971160099"><ele>1606.0</ele><time>2026-04-30T16:18:44.999Z</time></trkpt><trkpt lat="46.39886268239326" lon="12.195817409318932"><ele>1606.6666666666665</ele><time>2026-04-30T16:18:45.999Z</time></trkpt><trkpt lat="46.398752868006824" lon="12.195725139346544"><ele>1607.3333333333333</ele><time>2026-04-30T16:18:47.999Z</time></trkpt><trkpt lat="46.39867648299669" lon="12.195697417370486"><ele>1608.0</ele><time>2026-04-30T16:18:48.999Z</time></trkpt><trkpt lat="46.39857736957631" lon="12.195658783841226"><ele>1605.4</ele><time>2026-04-30T16:18:49.999Z</time></trkpt><trkpt lat="46.398499070683094" lon="12.19562631310036"><ele>1602.8000000000002</ele><time>2026-04-30T16:18:50.999Z</time></trkpt><trkpt lat="46.398392676418254" lon="12.195552961900823"><ele>1600.2</ele><time>2026-04-30T16:18:52.999Z</time></trkpt><trkpt lat="46.39830702838053" lon="12.19540637946513"><ele>1597.6</ele><time>2026-04-30T16:18:54.999Z</time></trkpt><trkpt lat="46.39828903533257" lon="12.195303020357375"><ele>1595.0</ele><time>2026-04-30T16:18:55.999Z</time></trkpt><trkpt lat="46.39825214792185" lon="12.195191546785468"><ele>1595.0</ele><time>2026-04-30T16:18:57.999Z</time></trkpt><trkpt lat="46.39818655483349" lon="12.195111102010681"><ele>1595.0</ele><time>2026-04-30T16:18:58.999Z</time></trkpt><trkpt lat="46.39808045401392" lon="12.195112697630243"><ele>1595.0</ele><time>2026-04-30T16:18:59.999Z</time></trkpt><trkpt lat="46.39794795339535" lon="12.195114637055363"><ele>1595.0</ele><time>2026-04-30T16:19:01.999Z</time></trkpt><trkpt lat="46.39786277949281" lon="12.195044190480347"><ele>1595.0</ele><time>2026-04-30T16:19:02.999Z</time></trkpt><trkpt lat="46.39777714615293" lon="12.194920399768028"><ele>1593.4</ele><time>2026-04-30T16:19:03.999Z</time></trkpt><trkpt lat="46.3977016040098" lon="12.194834780957665"><ele>1591.8</ele><time>2026-04-30T16:19:04.999Z</time></trkpt><trkpt lat="46.3976324556461" lon="12.194743079287347"><ele>1590.1999999999998</ele><time>2026-04-30T16:19:05.999Z</time></trkpt><trkpt lat="46.39756697458724" lon="12.19464836760697"><ele>1588.6</ele><time>2026-04-30T16:19:06.999Z</time></trkpt><trkpt lat="46.397509842922126" lon="12.19454271170165"><ele>1587.0</ele><time>2026-04-30T16:19:07.999Z</time></trkpt><trkpt lat="46.397467642298714" lon="12.194432444880912"><ele>1587.0</ele><time>2026-04-30T16:19:08.999Z</time></trkpt><trkpt lat="46.397448535638624" lon="12.194323360873708"><ele>1587.0</ele><time>2026-04-30T16:19:09.999Z</time></trkpt><trkpt lat="46.397425456245344" lon="12.194199673903569"><ele>1587.0</ele><time>2026-04-30T16:19:10.999Z</time></trkpt><trkpt lat="46.397386378851024" lon="12.194092016265971"><ele>1587.0</ele><time>2026-04-30T16:19:11.999Z</time></trkpt><trkpt lat="46.39732111839818" lon="12.194007592067509"><ele>1587.0</ele><time>2026-04-30T16:19:12.999Z</time></trkpt><trkpt lat="46.39724718410771" lon="12.193935461036029"><ele>1587.0</ele><time>2026-04-30T16:19:13.999Z</time></trkpt><trkpt lat="46.397166556867994" lon="12.193879788360542"><ele>1586.1666666666667</ele><time>2026-04-30T16:19:14.999Z</time></trkpt><trkpt lat="46.39708437695015" lon="12.193831717638371"><ele>1585.3333333333335</ele><time>2026-04-30T16:19:15.999Z</time></trkpt><trkpt lat="46.39701643572496" lon="12.19375900640957"><ele>1584.5</ele><time>2026-04-30T16:19:16.999Z</time></trkpt><trkpt lat="46.39696936959424" lon="12.193661263878989"><ele>1583.6666666666667</ele><time>2026-04-30T16:19:17.999Z</time></trkpt><trkpt lat="46.39694399416707" lon="12.193555667399647"><ele>1582.8333333333335</ele><time>2026-04-30T16:19:18.999Z</time></trkpt><trkpt lat="46.39691128002874" lon="12.193459531788214"><ele>1582.0</ele><time>2026-04-30T16:19:19.999Z</time></trkpt><trkpt lat="46.396862283134226" lon="12.193374084386573"><ele>1582.0000000000002</ele><time>2026-04-30T16:19:20.999Z</time></trkpt><trkpt lat="46.396805442271614" lon="12.193287373091763"><ele>1582.0</ele><time>2026-04-30T16:19:21.999Z</time></trkpt><trkpt lat="46.39674373775741" lon="12.193220275559177"><ele>1582.0</ele><time>2026-04-30T16:19:22.999Z</time></trkpt><trkpt lat="46.39667507648023" lon="12.193151223597646"><ele>1582.0</ele><time>2026-04-30T16:19:23.999Z</time></trkpt><trkpt lat="46.39660176082746" lon="12.193083637051787"><ele>1582.0000000000002</ele><time>2026-04-30T16:19:24.999Z</time></trkpt><trkpt lat="46.396542351984706" lon="12.193015385848458"><ele>1582.0</ele><time>2026-04-30T16:19:25.999Z</time></trkpt><trkpt lat="46.396479859234475" lon="12.19293488855947"><ele>1581.8333333333335</ele><time>2026-04-30T16:19:26.999Z</time></trkpt><trkpt lat="46.39641301970014" lon="12.192851411332036"><ele>1581.6666666666667</ele><time>2026-04-30T16:19:27.999Z</time></trkpt><trkpt lat="46.396350195075364" lon="12.192769916939692"><ele>1581.5</ele><time>2026-04-30T16:19:28.999Z</time></trkpt><trkpt lat="46.39628624987141" lon="12.192688485093583"><ele>1581.3333333333335</ele><time>2026-04-30T16:19:29.998Z</time></trkpt><trkpt lat="46.39622074226047" lon="12.1926049397823"><ele>1581.1666666666667</ele><time>2026-04-30T16:19:30.998Z</time></trkpt><trkpt lat="46.396154170246035" lon="12.192498905571735"><ele>1581.0</ele><time>2026-04-30T16:19:31.998Z</time></trkpt><trkpt lat="46.396084491345825" lon="12.192384875267551"><ele>1583.0</ele><time>2026-04-30T16:19:32.998Z</time></trkpt><trkpt lat="46.3960171624805" lon="12.192263931491528"><ele>1585.0</ele><time>2026-04-30T16:19:33.998Z</time></trkpt><trkpt lat="46.39595437035804" lon="12.192127512745316"><ele>1587.0</ele><time>2026-04-30T16:19:34.998Z</time></trkpt><trkpt lat="46.39588054550045" lon="12.19198396236849"><ele>1589.0</ele><time>2026-04-30T16:19:35.998Z</time></trkpt><trkpt lat="46.39582296312411" lon="12.191823383231815"><ele>1589.0</ele><time>2026-04-30T16:19:36.998Z</time></trkpt><trkpt lat="46.39577760637899" lon="12.191648314838611"><ele>1589.0</ele><time>2026-04-30T16:19:37.998Z</time></trkpt><trkpt lat="46.39572777357198" lon="12.191515618472542"><ele>1589.0</ele><time>2026-04-30T16:19:38.998Z</time></trkpt><trkpt lat="46.395695831433066" lon="12.191404694577065"><ele>1589.0</ele><time>2026-04-30T16:19:39.998Z</time></trkpt><trkpt lat="46.39567040233666" lon="12.191309435193146"><ele>1589.0</ele><time>2026-04-30T16:19:40.998Z</time></trkpt><trkpt lat="46.39565515191183" lon="12.191191811622746"><ele>1589.8000000000002</ele><time>2026-04-30T16:19:41.998Z</time></trkpt><trkpt lat="46.39564590582564" lon="12.191079181158202"><ele>1590.6000000000001</ele><time>2026-04-30T16:19:42.998Z</time></trkpt><trkpt lat="46.395654418070436" lon="12.190974671077553"><ele>1591.4</ele><time>2026-04-30T16:19:43.998Z</time></trkpt><trkpt lat="46.39569744022332" lon="12.190876420407237"><ele>1592.2</ele><time>2026-04-30T16:19:44.998Z</time></trkpt><trkpt lat="46.3957793690229" lon="12.190793072963984"><ele>1593.0</ele><time>2026-04-30T16:19:45.998Z</time></trkpt><trkpt lat="46.39587089472062" lon="12.190676039430244"><ele>1592.0</ele><time>2026-04-30T16:19:46.998Z</time></trkpt><trkpt lat="46.3959391561926" lon="12.190554357521489"><ele>1591.0</ele><time>2026-04-30T16:19:47.998Z</time></trkpt><trkpt lat="46.39597976709123" lon="12.190425907122972"><ele>1590.0</ele><time>2026-04-30T16:19:48.998Z</time></trkpt><trkpt lat="46.39599100624053" lon="12.190290369724124"><ele>1589.0</ele><time>2026-04-30T16:19:49.998Z</time></trkpt><trkpt lat="46.39597795492248" lon="12.190141524925966"><ele>1588.0</ele><time>2026-04-30T16:19:50.998Z</time></trkpt><trkpt lat="46.3959469112864" lon="12.189975114019044"><ele>1588.4</ele><time>2026-04-30T16:19:51.998Z</time></trkpt><trkpt lat="46.395911779889204" lon="12.189788871701337"><ele>1588.8000000000002</ele><time>2026-04-30T16:19:52.998Z</time></trkpt><trkpt lat="46.395875252242234" lon="12.18961172892795"><ele>1589.2</ele><time>2026-04-30T16:19:53.998Z</time></trkpt><trkpt lat="46.39584893636774" lon="12.189475901130885"><ele>1589.6</ele><time>2026-04-30T16:19:54.998Z</time></trkpt><trkpt lat="46.39581137826704" lon="12.189366440225811"><ele>1590.0</ele><time>2026-04-30T16:19:55.998Z</time></trkpt><trkpt lat="46.395801734502356" lon="12.189251776852199"><ele>1590.0</ele><time>2026-04-30T16:19:56.998Z</time></trkpt><trkpt lat="46.39580605854617" lon="12.18914488487992"><ele>1590.0</ele><time>2026-04-30T16:19:57.998Z</time></trkpt><trkpt lat="46.39581287543974" lon="12.18901728270414"><ele>1590.0</ele><time>2026-04-30T16:19:58.998Z</time></trkpt><trkpt lat="46.395825664198675" lon="12.1889009266763"><ele>1590.0</ele><time>2026-04-30T16:19:59.998Z</time></trkpt><trkpt lat="46.39582116072749" lon="12.188793261430735"><ele>1590.0</ele><time>2026-04-30T16:20:00.998Z</time></trkpt><trkpt lat="46.39579195409812" lon="12.188685959882214"><ele>1590.0</ele><time>2026-04-30T16:20:01.998Z</time></trkpt><trkpt lat="46.39572777967679" lon="12.18859383347733"><ele>1590.75</ele><time>2026-04-30T16:20:02.998Z</time></trkpt><trkpt lat="46.395639603027426" lon="12.188502941891148"><ele>1591.5</ele><time>2026-04-30T16:20:03.998Z</time></trkpt><trkpt lat="46.395566681073056" lon="12.188372044407423"><ele>1592.25</ele><time>2026-04-30T16:20:04.998Z</time></trkpt><trkpt lat="46.395478219628366" lon="12.1882542154693"><ele>1593.0</ele><time>2026-04-30T16:20:05.998Z</time></trkpt><trkpt lat="46.39538994430289" lon="12.188144803679727"><ele>1593.6000000000001</ele><time>2026-04-30T16:20:06.998Z</time></trkpt><trkpt lat="46.395316996138746" lon="12.188053549926412"><ele>1594.2</ele><time>2026-04-30T16:20:08Z</time></trkpt><trkpt lat="46.3952507893441" lon="12.18795334217943"><ele>1594.8</ele><time>2026-04-30T16:20:09Z</time></trkpt><trkpt lat="46.39519646949805" lon="12.18783033080215"><ele>1595.4</ele><time>2026-04-30T16:20:10Z</time></trkpt><trkpt lat="46.395105207231694" lon="12.187739716395829"><ele>1596.0</ele><time>2026-04-30T16:20:11Z</time></trkpt><trkpt lat="46.39499164806914" lon="12.187725224289588"><ele>1596.0</ele><time>2026-04-30T16:20:12Z</time></trkpt><trkpt lat="46.39491895545583" lon="12.187685583588864"><ele>1596.0</ele><time>2026-04-30T16:20:13Z</time></trkpt><trkpt lat="46.39488693566895" lon="12.187547964331655"><ele>1596.0</ele><time>2026-04-30T16:20:15Z</time></trkpt><trkpt lat="46.39494511549046" lon="12.187362328557134"><ele>1596.0</ele><time>2026-04-30T16:20:17Z</time></trkpt><trkpt lat="46.394988449650675" lon="12.18722279224227"><ele>1596.0</ele><time>2026-04-30T16:20:18Z</time></trkpt><trkpt lat="46.39503087761239" lon="12.187086542795882"><ele>1599.0</ele><time>2026-04-30T16:20:19Z</time></trkpt><trkpt lat="46.395029360592474" lon="12.186962524964212"><ele>1602.0</ele><time>2026-04-30T16:20:20Z</time></trkpt><trkpt lat="46.39499708896039" lon="12.186854251946956"><ele>1605.0</ele><time>2026-04-30T16:20:21Z</time></trkpt><trkpt lat="46.394949903518935" lon="12.186769974651094"><ele>1608.0</ele><time>2026-04-30T16:20:22Z</time></trkpt><trkpt lat="46.39489832478018" lon="12.18670202936484"><ele>1611.0</ele><time>2026-04-30T16:20:23Z</time></trkpt><trkpt lat="46.39483053587657" lon="12.186696398155627"><ele>1614.0</ele><time>2026-04-30T16:20:24Z</time></trkpt><trkpt lat="46.39472938553335" lon="12.18679403195662"><ele>1609.6</ele><time>2026-04-30T16:20:26Z</time></trkpt><trkpt lat="46.394658359616976" lon="12.186848810562878"><ele>1605.2</ele><time>2026-04-30T16:20:27Z</time></trkpt><trkpt lat="46.39459512067062" lon="12.186887868272612"><ele>1600.8</ele><time>2026-04-30T16:20:28Z</time></trkpt><trkpt lat="46.394495262681296" lon="12.186863668037532"><ele>1596.3999999999999</ele><time>2026-04-30T16:20:31Z</time></trkpt><trkpt lat="46.39445811908008" lon="12.186642983100256"><ele>1592.0</ele><time>2026-04-30T16:20:33Z</time></trkpt><trkpt lat="46.394420319905976" lon="12.186535837268462"><ele>1594.4999999999998</ele><time>2026-04-30T16:20:34Z</time></trkpt><trkpt lat="46.39434520273615" lon="12.186428316375371"><ele>1597.0</ele><time>2026-04-30T16:20:36Z</time></trkpt><trkpt lat="46.394269037070686" lon="12.186385787158452"><ele>1599.5</ele><time>2026-04-30T16:20:37Z</time></trkpt><trkpt lat="46.39420200994908" lon="12.186356606620118"><ele>1602.0</ele><time>2026-04-30T16:20:38Z</time></trkpt><trkpt lat="46.39413724070475" lon="12.186344300347363"><ele>1604.4999999999998</ele><time>2026-04-30T16:20:39Z</time></trkpt><trkpt lat="46.39408255360459" lon="12.18627630734711"><ele>1607.0</ele><time>2026-04-30T16:20:40Z</time></trkpt><trkpt lat="46.394050494112406" lon="12.186102117721976"><ele>1607.0</ele><time>2026-04-30T16:20:42Z</time></trkpt><trkpt lat="46.39404253972472" lon="12.185984880310917"><ele>1607.0</ele><time>2026-04-30T16:20:43Z</time></trkpt><trkpt lat="46.394062063655255" lon="12.185845726336549"><ele>1607.0</ele><time>2026-04-30T16:20:44Z</time></trkpt><trkpt lat="46.39407968245593" lon="12.185721334989918"><ele>1607.0</ele><time>2026-04-30T16:20:45Z</time></trkpt><trkpt lat="46.39410869472965" lon="12.185570049200718"><ele>1607.0</ele><time>2026-04-30T16:20:45.999Z</time></trkpt><trkpt lat="46.394097577298446" lon="12.185424690599824"><ele>1605.8333333333333</ele><time>2026-04-30T16:20:46.999Z</time></trkpt><trkpt lat="46.3940834397766" lon="12.185285261361907"><ele>1604.6666666666665</ele><time>2026-04-30T16:20:47.999Z</time></trkpt><trkpt lat="46.39404971675477" lon="12.185186600145624"><ele>1603.5</ele><time>2026-04-30T16:20:48.999Z</time></trkpt><trkpt lat="46.39399775543176" lon="12.185112329404353"><ele>1602.3333333333335</ele><time>2026-04-30T16:20:49.999Z</time></trkpt><trkpt lat="46.39391499718132" lon="12.18509222052465"><ele>1601.1666666666667</ele><time>2026-04-30T16:20:50.999Z</time></trkpt><trkpt lat="46.393832968981314" lon="12.185085084341662"><ele>1600.0</ele><time>2026-04-30T16:20:51.999Z</time></trkpt><trkpt lat="46.39374750027426" lon="12.18503402067884"><ele>1600.0000000000002</ele><time>2026-04-30T16:20:53.999Z</time></trkpt><trkpt lat="46.393696590582095" lon="12.184968319639387"><ele>1600.0</ele><time>2026-04-30T16:20:54.999Z</time></trkpt><trkpt lat="46.39364210115525" lon="12.184853479174604"><ele>1600.0</ele><time>2026-04-30T16:20:55.999Z</time></trkpt><trkpt lat="46.39358071158498" lon="12.184768216504201"><ele>1600.0</ele><time>2026-04-30T16:20:56.999Z</time></trkpt><trkpt lat="46.393516921667995" lon="12.184733892962972"><ele>1600.0000000000002</ele><time>2026-04-30T16:20:57.999Z</time></trkpt><trkpt lat="46.39343352127319" lon="12.184719457362618"><ele>1600.0</ele><time>2026-04-30T16:20:58.999Z</time></trkpt><trkpt lat="46.39334545169322" lon="12.184670467868203"><ele>1602.4</ele><time>2026-04-30T16:20:59.999Z</time></trkpt><trkpt lat="46.39325668541694" lon="12.18466331993012"><ele>1604.8</ele><time>2026-04-30T16:21:00.999Z</time></trkpt><trkpt lat="46.393177578274965" lon="12.18463954139853"><ele>1607.1999999999998</ele><time>2026-04-30T16:21:01.999Z</time></trkpt><trkpt lat="46.39309252177377" lon="12.184703010600614"><ele>1609.6</ele><time>2026-04-30T16:21:02.999Z</time></trkpt><trkpt lat="46.39300774508761" lon="12.184782857889429"><ele>1612.0</ele><time>2026-04-30T16:21:03.999Z</time></trkpt><trkpt lat="46.39292844591454" lon="12.184860340056051"><ele>1612.0000000000002</ele><time>2026-04-30T16:21:04.999Z</time></trkpt><trkpt lat="46.39286885299279" lon="12.18490521170927"><ele>1612.0</ele><time>2026-04-30T16:21:05.999Z</time></trkpt><trkpt lat="46.392768745128095" lon="12.184926743014598"><ele>1612.0</ele><time>2026-04-30T16:21:07.999Z</time></trkpt><trkpt lat="46.39269424153232" lon="12.184903821982763"><ele>1612.0</ele><time>2026-04-30T16:21:08.999Z</time></trkpt><trkpt lat="46.392608868898215" lon="12.18490047508534"><ele>1612.0000000000002</ele><time>2026-04-30T16:21:09.999Z</time></trkpt><trkpt lat="46.392508727479196" lon="12.184871876524104"><ele>1612.0</ele><time>2026-04-30T16:21:10.999Z</time></trkpt><trkpt lat="46.39241828918001" lon="12.184839404978595"><ele>1612.0</ele><time>2026-04-30T16:21:11.999Z</time></trkpt><trkpt lat="46.392304218915875" lon="12.184808346824946"><ele>1612.0</ele><time>2026-04-30T16:21:13.999Z</time></trkpt><trkpt lat="46.39222909676028" lon="12.184889280347408"><ele>1612.0</ele><time>2026-04-30T16:21:14.999Z</time></trkpt><trkpt lat="46.39221196510898" lon="12.18504259523598"><ele>1612.0</ele><time>2026-04-30T16:21:15.999Z</time></trkpt><trkpt lat="46.392205922631476" lon="12.18516927865395"><ele>1612.0</ele><time>2026-04-30T16:21:16.999Z</time></trkpt><trkpt lat="46.39220739444191" lon="12.18530569885213"><ele>1612.0000000000002</ele><time>2026-04-30T16:21:17.999Z</time></trkpt><trkpt lat="46.3922085613467" lon="12.18541163638805"><ele>1612.0</ele><time>2026-04-30T16:21:18.999Z</time></trkpt><trkpt lat="46.39219998687552" lon="12.185538376564985"><ele>1612.0</ele><time>2026-04-30T16:21:19.999Z</time></trkpt><trkpt lat="46.39217711618271" lon="12.185673009171346"><ele>1612.0</ele><time>2026-04-30T16:21:20.999Z</time></trkpt><trkpt lat="46.3921498356741" lon="12.18578004113432"><ele>1612.0000000000002</ele><time>2026-04-30T16:21:21.999Z</time></trkpt><trkpt lat="46.39211212097454" lon="12.185877833091784"><ele>1612.0</ele><time>2026-04-30T16:21:22.999Z</time></trkpt><trkpt lat="46.392059800576135" lon="12.185991817825773"><ele>1610.25</ele><time>2026-04-30T16:21:23.999Z</time></trkpt><trkpt lat="46.391989281535636" lon="12.186124571913235"><ele>1608.5</ele><time>2026-04-30T16:21:24.999Z</time></trkpt><trkpt lat="46.3919123887905" lon="12.186270030218072"><ele>1606.75</ele><time>2026-04-30T16:21:25.999Z</time></trkpt><trkpt lat="46.39185887383389" lon="12.186410773917524"><ele>1605.0</ele><time>2026-04-30T16:21:26.999Z</time></trkpt><trkpt lat="46.39180645874488" lon="12.18654739683576"><ele>1605.0</ele><time>2026-04-30T16:21:27.999Z</time></trkpt><trkpt lat="46.391752714341955" lon="12.186644413185684"><ele>1605.0</ele><time>2026-04-30T16:21:28.999Z</time></trkpt><trkpt lat="46.3917094463195" lon="12.186716037048463"><ele>1605.0</ele><time>2026-04-30T16:21:29.999Z</time></trkpt><trkpt lat="46.391646487637026" lon="12.18679386372465"><ele>1605.0</ele><time>2026-04-30T16:21:31.999Z</time></trkpt><trkpt lat="46.39157248767077" lon="12.186780702906196"><ele>1605.0</ele><time>2026-04-30T16:21:33.998Z</time></trkpt><trkpt lat="46.39149613894952" lon="12.186722651309282"><ele>1605.0</ele><time>2026-04-30T16:21:35.998Z</time></trkpt><trkpt lat="46.391401874916866" lon="12.186646811026048"><ele>1603.0</ele><time>2026-04-30T16:21:37.998Z</time></trkpt><trkpt lat="46.39129903786311" lon="12.18658232911099"><ele>1601.0</ele><time>2026-04-30T16:21:39.998Z</time></trkpt><trkpt lat="46.391183218122045" lon="12.186523688933635"><ele>1599.0</ele><time>2026-04-30T16:21:41.998Z</time></trkpt><trkpt lat="46.39109010825339" lon="12.186457413714578"><ele>1597.0</ele><time>2026-04-30T16:21:43.998Z</time></trkpt><trkpt lat="46.39102352789157" lon="12.186424299937697"><ele>1595.0</ele><time>2026-04-30T16:21:44.998Z</time></trkpt><trkpt lat="46.39093793920396" lon="12.186422236639713"><ele>1594.5</ele><time>2026-04-30T16:21:45.998Z</time></trkpt><trkpt lat="46.39082759814371" lon="12.186434932866888"><ele>1594.0</ele><time>2026-04-30T16:21:46.998Z</time></trkpt><trkpt lat="46.39069918664997" lon="12.186438127652023"><ele>1593.5</ele><time>2026-04-30T16:21:47.998Z</time></trkpt><trkpt lat="46.39058812344891" lon="12.186485562721359"><ele>1593.0</ele><time>2026-04-30T16:21:48.998Z</time></trkpt><trkpt lat="46.39048026065199" lon="12.186537931881967"><ele>1593.0</ele><time>2026-04-30T16:21:49.998Z</time></trkpt><trkpt lat="46.39037175033048" lon="12.18657438870908"><ele>1593.0</ele><time>2026-04-30T16:21:50.998Z</time></trkpt><trkpt lat="46.39027315930534" lon="12.186589437942537"><ele>1593.0</ele><time>2026-04-30T16:21:51.998Z</time></trkpt><trkpt lat="46.39017534768853" lon="12.18658543021597"><ele>1593.0</ele><time>2026-04-30T16:21:52.998Z</time></trkpt><trkpt lat="46.3900773069929" lon="12.186587733609155"><ele>1593.0</ele><time>2026-04-30T16:21:53.998Z</time></trkpt><trkpt lat="46.38997823771502" lon="12.186598050281985"><ele>1593.0</ele><time>2026-04-30T16:21:54.998Z</time></trkpt><trkpt lat="46.389884054218015" lon="12.186630539996223"><ele>1593.0</ele><time>2026-04-30T16:21:55.998Z</time></trkpt><trkpt lat="46.38978524944621" lon="12.186645883111458"><ele>1593.0</ele><time>2026-04-30T16:21:56.998Z</time></trkpt><trkpt lat="46.389680226625515" lon="12.186642731179772"><ele>1593.0</ele><time>2026-04-30T16:21:57.998Z</time></trkpt><trkpt lat="46.38958239297252" lon="12.186687099617753"><ele>1593.0</ele><time>2026-04-30T16:21:58.998Z</time></trkpt><trkpt lat="46.38949160860073" lon="12.186705260187537"><ele>1592.8333333333333</ele><time>2026-04-30T16:21:59.998Z</time></trkpt><trkpt lat="46.38941045871821" lon="12.18670904542802"><ele>1592.6666666666665</ele><time>2026-04-30T16:22:00.998Z</time></trkpt><trkpt lat="46.38933148263" lon="12.186690119244686"><ele>1592.5</ele><time>2026-04-30T16:22:01.998Z</time></trkpt><trkpt lat="46.389252343066794" lon="12.186646962568538"><ele>1592.3333333333333</ele><time>2026-04-30T16:22:02.998Z</time></trkpt><trkpt lat="46.38916408863666" lon="12.186588886527263"><ele>1592.1666666666665</ele><time>2026-04-30T16:22:03.998Z</time></trkpt><trkpt lat="46.38906875630269" lon="12.186526374521364"><ele>1592.0</ele><time>2026-04-30T16:22:04.998Z</time></trkpt><trkpt lat="46.38896797891567" lon="12.186446007124554"><ele>1589.0</ele><time>2026-04-30T16:22:05.998Z</time></trkpt><trkpt lat="46.38886828342478" lon="12.186341968745038"><ele>1586.0</ele><time>2026-04-30T16:22:06.998Z</time></trkpt><trkpt lat="46.38877610885956" lon="12.186231142213435"><ele>1583.0</ele><time>2026-04-30T16:22:07.998Z</time></trkpt><trkpt lat="46.38869692848236" lon="12.186124966122808"><ele>1580.0</ele><time>2026-04-30T16:22:08.998Z</time></trkpt><trkpt lat="46.38862812827609" lon="12.186030824992566"><ele>1577.0</ele><time>2026-04-30T16:22:09.998Z</time></trkpt><trkpt lat="46.38857041659343" lon="12.185945330499395"><ele>1576.9999999999998</ele><time>2026-04-30T16:22:10.998Z</time></trkpt><trkpt lat="46.38852354103693" lon="12.18586325849237"><ele>1577.0</ele><time>2026-04-30T16:22:11.998Z</time></trkpt><trkpt lat="46.38849313731078" lon="12.185768304575019"><ele>1577.0</ele><time>2026-04-30T16:22:12.998Z</time></trkpt><trkpt lat="46.38847627356679" lon="12.185651539927905"><ele>1577.0</ele><time>2026-04-30T16:22:14Z</time></trkpt><trkpt lat="46.3884520045064" lon="12.18553435732229"><ele>1576.9999999999998</ele><time>2026-04-30T16:22:15Z</time></trkpt><trkpt lat="46.388429894343496" lon="12.185417550043613"><ele>1577.0</ele><time>2026-04-30T16:22:16Z</time></trkpt><trkpt lat="46.38840877467721" lon="12.185310347180947"><ele>1578.9999999999998</ele><time>2026-04-30T16:22:17Z</time></trkpt><trkpt lat="46.38839191323086" lon="12.185194643403815"><ele>1581.0</ele><time>2026-04-30T16:22:18Z</time></trkpt><trkpt lat="46.38837090305983" lon="12.185078422049399"><ele>1583.0</ele><time>2026-04-30T16:22:19Z</time></trkpt><trkpt lat="46.38835366570193" lon="12.184952237317278"><ele>1585.0</ele><time>2026-04-30T16:22:20Z</time></trkpt><trkpt lat="46.388334018128155" lon="12.184825948583176"><ele>1586.9999999999998</ele><time>2026-04-30T16:22:21Z</time></trkpt><trkpt lat="46.38831755591356" lon="12.18469102005669"><ele>1589.0</ele><time>2026-04-30T16:22:22Z</time></trkpt><trkpt lat="46.388300295753375" lon="12.184555088866645"><ele>1590.2</ele><time>2026-04-30T16:22:23Z</time></trkpt><trkpt lat="46.38828167127298" lon="12.184414498824076"><ele>1591.4</ele><time>2026-04-30T16:22:24Z</time></trkpt><trkpt lat="46.38825553404736" lon="12.184263829579606"><ele>1592.6</ele><time>2026-04-30T16:22:25Z</time></trkpt><trkpt lat="46.388222024418184" lon="12.184112522294761"><ele>1593.8</ele><time>2026-04-30T16:22:26Z</time></trkpt><trkpt lat="46.388180362816854" lon="12.183969617340958"><ele>1595.0</ele><time>2026-04-30T16:22:27Z</time></trkpt><trkpt lat="46.388114320751235" lon="12.18382640780938"><ele>1598.75</ele><time>2026-04-30T16:22:28Z</time></trkpt><trkpt lat="46.388027266314566" lon="12.183686431499964"><ele>1602.5</ele><time>2026-04-30T16:22:29Z</time></trkpt><trkpt lat="46.38794044565112" lon="12.183548468689338"><ele>1606.25</ele><time>2026-04-30T16:22:30Z</time></trkpt><trkpt lat="46.38786407681468" lon="12.183404441197906"><ele>1610.0</ele><time>2026-04-30T16:22:31Z</time></trkpt><trkpt lat="46.3878056570684" lon="12.18324751263063"><ele>1603.4</ele><time>2026-04-30T16:22:32Z</time></trkpt><trkpt lat="46.38775258986992" lon="12.183098417863615"><ele>1596.8</ele><time>2026-04-30T16:22:33Z</time></trkpt><trkpt lat="46.38769213179788" lon="12.182962535018184"><ele>1590.1999999999998</ele><time>2026-04-30T16:22:34Z</time></trkpt><trkpt lat="46.3876223364237" lon="12.182845616175852"><ele>1583.6</ele><time>2026-04-30T16:22:35Z</time></trkpt><trkpt lat="46.38754744612746" lon="12.182735171697248"><ele>1577.0</ele><time>2026-04-30T16:22:36Z</time></trkpt><trkpt lat="46.387469721271344" lon="12.182631798789606"><ele>1577.0</ele><time>2026-04-30T16:22:37Z</time></trkpt><trkpt lat="46.38738738356061" lon="12.18254691678384"><ele>1577.0</ele><time>2026-04-30T16:22:38Z</time></trkpt><trkpt lat="46.38729957104946" lon="12.182493590711703"><ele>1577.0</ele><time>2026-04-30T16:22:39Z</time></trkpt><trkpt lat="46.3871996698844" lon="12.18245286689957"><ele>1577.0</ele><time>2026-04-30T16:22:40Z</time></trkpt><trkpt lat="46.38709650014994" lon="12.182401824933349"><ele>1577.0</ele><time>2026-04-30T16:22:41Z</time></trkpt><trkpt lat="46.38697956581714" lon="12.182355539713765"><ele>1571.0</ele><time>2026-04-30T16:22:42Z</time></trkpt><trkpt lat="46.38686527723514" lon="12.18230693308461"><ele>1565.0</ele><time>2026-04-30T16:22:43Z</time></trkpt><trkpt lat="46.38675634050023" lon="12.18226354918836"><ele>1559.0</ele><time>2026-04-30T16:22:44Z</time></trkpt><trkpt lat="46.38665096054968" lon="12.182241320376738"><ele>1553.0</ele><time>2026-04-30T16:22:45Z</time></trkpt><trkpt lat="46.38655003539826" lon="12.182234470415377"><ele>1547.0</ele><time>2026-04-30T16:22:46Z</time></trkpt><trkpt lat="46.38644670608403" lon="12.182268135109286"><ele>1545.25</ele><time>2026-04-30T16:22:47Z</time></trkpt><trkpt lat="46.38634342827888" lon="12.182345962413043"><ele>1543.5</ele><time>2026-04-30T16:22:48Z</time></trkpt><trkpt lat="46.38624044342635" lon="12.182442174989369"><ele>1541.75</ele><time>2026-04-30T16:22:49Z</time></trkpt><trkpt lat="46.386144465633876" lon="12.182542094439944"><ele>1540.0</ele><time>2026-04-30T16:22:49.999Z</time></trkpt><trkpt lat="46.386060381632056" lon="12.182613778682216"><ele>1540.0</ele><time>2026-04-30T16:22:50.999Z</time></trkpt><trkpt lat="46.38598082623782" lon="12.182671638855423"><ele>1540.0</ele><time>2026-04-30T16:22:51.999Z</time></trkpt><trkpt lat="46.3858940068493" lon="12.182651936955256"><ele>1540.0</ele><time>2026-04-30T16:22:52.999Z</time></trkpt><trkpt lat="46.38582061143325" lon="12.182511275559065"><ele>1540.0</ele><time>2026-04-30T16:22:54.999Z</time></trkpt><trkpt lat="46.3858064759741" lon="12.182404558646592"><ele>1540.0</ele><time>2026-04-30T16:22:55.999Z</time></trkpt><trkpt lat="46.38580881338987" lon="12.182225377512813"><ele>1539.5</ele><time>2026-04-30T16:22:56.999Z</time></trkpt><trkpt lat="46.38582022054141" lon="12.182063234187886"><ele>1539.0</ele><time>2026-04-30T16:22:57.999Z</time></trkpt><trkpt lat="46.38585532752" lon="12.181885171609423"><ele>1538.5</ele><time>2026-04-30T16:22:58.999Z</time></trkpt><trkpt lat="46.38593208019902" lon="12.181747186061035"><ele>1538.0</ele><time>2026-04-30T16:22:59.999Z</time></trkpt><trkpt lat="46.386001101749265" lon="12.181588723894084"><ele>1535.75</ele><time>2026-04-30T16:23:00.999Z</time></trkpt><trkpt lat="46.38606856143425" lon="12.181434804047194"><ele>1533.5</ele><time>2026-04-30T16:23:01.999Z</time></trkpt><trkpt lat="46.386093376085704" lon="12.181272874547059"><ele>1531.25</ele><time>2026-04-30T16:23:02.999Z</time></trkpt><trkpt lat="46.38608725547558" lon="12.181104500715842"><ele>1529.0</ele><time>2026-04-30T16:23:03.999Z</time></trkpt><trkpt lat="46.386079893079945" lon="12.180933491874123"><ele>1529.0</ele><time>2026-04-30T16:23:04.999Z</time></trkpt><trkpt lat="46.38609216883435" lon="12.180768731179905"><ele>1529.0</ele><time>2026-04-30T16:23:05.999Z</time></trkpt><trkpt lat="46.386132900017444" lon="12.180619259366713"><ele>1529.0</ele><time>2026-04-30T16:23:06.999Z</time></trkpt><trkpt lat="46.38616354535972" lon="12.180462366192572"><ele>1529.0</ele><time>2026-04-30T16:23:07.999Z</time></trkpt><trkpt lat="46.386189240118895" lon="12.18029031291271"><ele>1527.6</ele><time>2026-04-30T16:23:08.999Z</time></trkpt><trkpt lat="46.38621915909749" lon="12.18014885989408"><ele>1526.2</ele><time>2026-04-30T16:23:09.999Z</time></trkpt><trkpt lat="46.38625562459684" lon="12.180023802890556"><ele>1524.8</ele><time>2026-04-30T16:23:10.999Z</time></trkpt><trkpt lat="46.38629163177037" lon="12.179889194511523"><ele>1523.3999999999999</ele><time>2026-04-30T16:23:11.999Z</time></trkpt><trkpt lat="46.38627803443556" lon="12.179759470383129"><ele>1522.0</ele><time>2026-04-30T16:23:12.999Z</time></trkpt><trkpt lat="46.386229438273766" lon="12.179636972548701"><ele>1522.0</ele><time>2026-04-30T16:23:13.999Z</time></trkpt><trkpt lat="46.386149030778384" lon="12.17950305446792"><ele>1522.0</ele><time>2026-04-30T16:23:14.999Z</time></trkpt><trkpt lat="46.38604993617245" lon="12.179417243683163"><ele>1522.0</ele><time>2026-04-30T16:23:15.999Z</time></trkpt><trkpt lat="46.385939208002114" lon="12.179356587752036"><ele>1522.0</ele><time>2026-04-30T16:23:16.999Z</time></trkpt><trkpt lat="46.38583712465319" lon="12.179309844388829"><ele>1522.0</ele><time>2026-04-30T16:23:17.999Z</time></trkpt><trkpt lat="46.385754865349355" lon="12.17925261291678"><ele>1522.0</ele><time>2026-04-30T16:23:18.999Z</time></trkpt><trkpt lat="46.385689865954504" lon="12.179201252131554"><ele>1522.0</ele><time>2026-04-30T16:23:19.999Z</time></trkpt><trkpt lat="46.38563634707606" lon="12.17912966237701"><ele>1522.0</ele><time>2026-04-30T16:23:20.999Z</time></trkpt><trkpt lat="46.38561637540901" lon="12.17902547369338"><ele>1522.0</ele><time>2026-04-30T16:23:21.999Z</time></trkpt><trkpt lat="46.38561962438674" lon="12.178914118883059"><ele>1522.0</ele><time>2026-04-30T16:23:22.999Z</time></trkpt><trkpt lat="46.38566124167468" lon="12.178820688472921"><ele>1520.1999999999998</ele><time>2026-04-30T16:23:23.999Z</time></trkpt><trkpt lat="46.38573486077097" lon="12.178745429673498"><ele>1518.4</ele><time>2026-04-30T16:23:24.999Z</time></trkpt><trkpt lat="46.385841945074496" lon="12.17871046911387"><ele>1516.6</ele><time>2026-04-30T16:23:25.999Z</time></trkpt><trkpt lat="46.38593196412862" lon="12.178607260099968"><ele>1514.8000000000002</ele><time>2026-04-30T16:23:26.999Z</time></trkpt><trkpt lat="46.38600068207549" lon="12.178453994066222"><ele>1513.0</ele><time>2026-04-30T16:23:27.999Z</time></trkpt><trkpt lat="46.386052238686766" lon="12.178248937985636"><ele>1507.3333333333333</ele><time>2026-04-30T16:23:28.999Z</time></trkpt><trkpt lat="46.38609981363648" lon="12.17804946648842"><ele>1501.6666666666667</ele><time>2026-04-30T16:23:29.999Z</time></trkpt><trkpt lat="46.38611542641296" lon="12.177819207980725"><ele>1496.0</ele><time>2026-04-30T16:23:30.999Z</time></trkpt><trkpt lat="46.38612552889758" lon="12.17757447979548"><ele>1496.0</ele><time>2026-04-30T16:23:31.999Z</time></trkpt><trkpt lat="46.38618857425773" lon="12.177354790866978"><ele>1496.0</ele><time>2026-04-30T16:23:32.999Z</time></trkpt><trkpt lat="46.386217115222095" lon="12.17713044969796"><ele>1496.0</ele><time>2026-04-30T16:23:33.999Z</time></trkpt><trkpt lat="46.386238450883816" lon="12.176917801208427"><ele>1493.5</ele><time>2026-04-30T16:23:34.999Z</time></trkpt><trkpt lat="46.38624974815825" lon="12.176707361032264"><ele>1491.0</ele><time>2026-04-30T16:23:35.999Z</time></trkpt><trkpt lat="46.38626416404642" lon="12.176507343229584"><ele>1488.5</ele><time>2026-04-30T16:23:36.999Z</time></trkpt><trkpt lat="46.386287107936944" lon="12.176320201005565"><ele>1486.0</ele><time>2026-04-30T16:23:37.998Z</time></trkpt><trkpt lat="46.38630982373639" lon="12.176143744764511"><ele>1483.0</ele><time>2026-04-30T16:23:38.998Z</time></trkpt><trkpt lat="46.386316537272585" lon="12.175987176850693"><ele>1480.0</ele><time>2026-04-30T16:23:39.998Z</time></trkpt><trkpt lat="46.386316164473456" lon="12.175850201536424"><ele>1477.0</ele><time>2026-04-30T16:23:40.998Z</time></trkpt><trkpt lat="46.38635580896245" lon="12.175737938921207"><ele>1474.0</ele><time>2026-04-30T16:23:41.998Z</time></trkpt><trkpt lat="46.386402689885955" lon="12.175605832310264"><ele>1471.0</ele><time>2026-04-30T16:23:42.998Z</time></trkpt><trkpt lat="46.386493408402416" lon="12.175482635062865"><ele>1473.75</ele><time>2026-04-30T16:23:43.998Z</time></trkpt><trkpt lat="46.386571745823474" lon="12.175323251079071"><ele>1476.5</ele><time>2026-04-30T16:23:44.998Z</time></trkpt><trkpt lat="46.386632004684884" lon="12.175135154833152"><ele>1479.25</ele><time>2026-04-30T16:23:45.998Z</time></trkpt><trkpt lat="46.386665678387025" lon="12.174935243999068"><ele>1482.0</ele><time>2026-04-30T16:23:46.998Z</time></trkpt><trkpt lat="46.386678721975315" lon="12.174710301698063"><ele>1482.0</ele><time>2026-04-30T16:23:47.998Z</time></trkpt><trkpt lat="46.38669713622193" lon="12.17454683394421"><ele>1482.0</ele><time>2026-04-30T16:23:48.998Z</time></trkpt><trkpt lat="46.38671296165244" lon="12.174399175432635"><ele>1482.0</ele><time>2026-04-30T16:23:49.998Z</time></trkpt><trkpt lat="46.386777373998" lon="12.174279757011393"><ele>1482.0</ele><time>2026-04-30T16:23:50.998Z</time></trkpt><trkpt lat="46.386850285776134" lon="12.174129823448162"><ele>1482.0</ele><time>2026-04-30T16:23:51.998Z</time></trkpt><trkpt lat="46.386928020821266" lon="12.173976822836938"><ele>1478.8</ele><time>2026-04-30T16:23:52.998Z</time></trkpt><trkpt lat="46.386987030606065" lon="12.173822678358697"><ele>1475.6</ele><time>2026-04-30T16:23:53.998Z</time></trkpt><trkpt lat="46.38702946302791" lon="12.173667426665745"><ele>1472.3999999999999</ele><time>2026-04-30T16:23:54.998Z</time></trkpt><trkpt lat="46.3870503169581" lon="12.173511856434917"><ele>1469.1999999999998</ele><time>2026-04-30T16:23:55.998Z</time></trkpt><trkpt lat="46.38705757765561" lon="12.173384778921692"><ele>1466.0</ele><time>2026-04-30T16:23:56.998Z</time></trkpt><trkpt lat="46.38707562674827" lon="12.173258109734844"><ele>1465.4</ele><time>2026-04-30T16:23:57.998Z</time></trkpt><trkpt lat="46.38711150105048" lon="12.173133522285"><ele>1464.8</ele><time>2026-04-30T16:23:58.998Z</time></trkpt><trkpt lat="46.387166396132635" lon="12.173024829149279"><ele>1464.2</ele><time>2026-04-30T16:23:59.998Z</time></trkpt><trkpt lat="46.387218444625525" lon="12.172915444476041"><ele>1463.6000000000001</ele><time>2026-04-30T16:24:00.998Z</time></trkpt><trkpt lat="46.38728283095071" lon="12.17282969672698"><ele>1463.0</ele><time>2026-04-30T16:24:01.998Z</time></trkpt><trkpt lat="46.3873787576965" lon="12.172751400347032"><ele>1465.5</ele><time>2026-04-30T16:24:02.998Z</time></trkpt><trkpt lat="46.387479268821416" lon="12.172686854367644"><ele>1468.0</ele><time>2026-04-30T16:24:03.998Z</time></trkpt><trkpt lat="46.387583479066535" lon="12.172600990609801"><ele>1470.5</ele><time>2026-04-30T16:24:04.998Z</time></trkpt><trkpt lat="46.387682175362656" lon="12.172486805152394"><ele>1473.0</ele><time>2026-04-30T16:24:05.998Z</time></trkpt><trkpt lat="46.38775511728101" lon="12.172377577898084"><ele>1472.0</ele><time>2026-04-30T16:24:06.998Z</time></trkpt><trkpt lat="46.387824980515575" lon="12.172295270569998"><ele>1471.0</ele><time>2026-04-30T16:24:07.998Z</time></trkpt><trkpt lat="46.387901278169956" lon="12.172255802674634"><ele>1470.0</ele><time>2026-04-30T16:24:08.998Z</time></trkpt><trkpt lat="46.387974586841494" lon="12.172225507020364"><ele>1469.0</ele><time>2026-04-30T16:24:09.998Z</time></trkpt><trkpt lat="46.3880655514281" lon="12.17217053993746"><ele>1468.0</ele><time>2026-04-30T16:24:11.998Z</time></trkpt><trkpt lat="46.388161471871825" lon="12.172117728333033"><ele>1467.0</ele><time>2026-04-30T16:24:13.998Z</time></trkpt><trkpt lat="46.38805374831493" lon="12.17202707222687"><ele>1493.0</ele><time>2026-04-30T16:24:15.998Z</time></trkpt></trkseg></trk></gpx>